<?xml version="1.0" encoding="UTF-8" standalone="no" ?>
<gpx xmlns="http://www.topografix.com/GPX/1/1" xmlns:xsi="http://www.w3.org/2001/XMLSchema-instance" xsi:schemaLocation="http://www.topografix.com/GPX/1/1 http://www.topografix.com/GPX/1/1/gpx.xsd" version="1.1" creator="VisuGPX - https://www.visugpx.com">
  <metadata>
    <name>jour 1 depart Pla de Laspeyres vers refuge juclar 1696m-2019-08-10-141415</name>
    <desc><![CDATA[[b][i][url][img][/img][/url][/i][/b]]]></desc>
  </metadata>
  <trk>
    <name><![CDATA[MA-Rando-2019-08-10-141415]]></name>
    <trkseg>
      <trkpt lat="42.64174" lon="1.70466">
        <ele>1845</ele>
        <time>2019-08-10T07:40:35Z</time>
      </trkpt>
      <trkpt lat="42.64164" lon="1.70471">
        <ele>1816</ele>
        <time>2019-08-10T07:40:48Z</time>
      </trkpt>
      <trkpt lat="42.64161" lon="1.70488">
        <ele>1805</ele>
        <time>2019-08-10T07:41:03Z</time>
      </trkpt>
      <trkpt lat="42.64152" lon="1.70503">
        <ele>1795</ele>
        <time>2019-08-10T07:41:32Z</time>
      </trkpt>
      <trkpt lat="42.64144" lon="1.70511">
        <ele>1788</ele>
        <time>2019-08-10T07:41:37Z</time>
      </trkpt>
      <trkpt lat="42.64137" lon="1.70519">
        <ele>1794</ele>
        <time>2019-08-10T07:42:00Z</time>
      </trkpt>
      <trkpt lat="42.64129" lon="1.70525">
        <ele>1795</ele>
        <time>2019-08-10T07:42:13Z</time>
      </trkpt>
      <trkpt lat="42.64126" lon="1.70538">
        <ele>1801</ele>
        <time>2019-08-10T07:42:31Z</time>
      </trkpt>
      <trkpt lat="42.6412" lon="1.70549">
        <ele>1806</ele>
        <time>2019-08-10T07:42:44Z</time>
      </trkpt>
      <trkpt lat="42.64116" lon="1.7056">
        <ele>1805</ele>
        <time>2019-08-10T07:43:01Z</time>
      </trkpt>
      <trkpt lat="42.64108" lon="1.70566">
        <ele>1804</ele>
        <time>2019-08-10T07:43:11Z</time>
      </trkpt>
      <trkpt lat="42.64109" lon="1.7058">
        <ele>1808</ele>
        <time>2019-08-10T07:43:23Z</time>
      </trkpt>
      <trkpt lat="42.64112" lon="1.70594">
        <ele>1816</ele>
        <time>2019-08-10T07:43:43Z</time>
      </trkpt>
      <trkpt lat="42.64108" lon="1.70605">
        <ele>1820</ele>
        <time>2019-08-10T07:44:11Z</time>
      </trkpt>
      <trkpt lat="42.64102" lon="1.70614">
        <ele>1819</ele>
        <time>2019-08-10T07:44:25Z</time>
      </trkpt>
      <trkpt lat="42.64099" lon="1.70626">
        <ele>1822</ele>
        <time>2019-08-10T07:44:40Z</time>
      </trkpt>
      <trkpt lat="42.64093" lon="1.70635">
        <ele>1821</ele>
        <time>2019-08-10T07:44:52Z</time>
      </trkpt>
      <trkpt lat="42.64089" lon="1.70647">
        <ele>1818</ele>
        <time>2019-08-10T07:45:11Z</time>
      </trkpt>
      <trkpt lat="42.64092" lon="1.70663">
        <ele>1819</ele>
        <time>2019-08-10T07:45:28Z</time>
      </trkpt>
      <trkpt lat="42.64086" lon="1.70673">
        <ele>1830</ele>
        <time>2019-08-10T07:48:06Z</time>
      </trkpt>
      <trkpt lat="42.64085" lon="1.70686">
        <ele>1830</ele>
        <time>2019-08-10T07:48:24Z</time>
      </trkpt>
      <trkpt lat="42.64083" lon="1.707">
        <ele>1830</ele>
        <time>2019-08-10T07:48:39Z</time>
      </trkpt>
      <trkpt lat="42.64078" lon="1.70712">
        <ele>1838</ele>
        <time>2019-08-10T07:48:54Z</time>
      </trkpt>
      <trkpt lat="42.64073" lon="1.70722">
        <ele>1840</ele>
        <time>2019-08-10T07:49:12Z</time>
      </trkpt>
      <trkpt lat="42.64069" lon="1.70732">
        <ele>1846</ele>
        <time>2019-08-10T07:49:24Z</time>
      </trkpt>
      <trkpt lat="42.6407" lon="1.70745">
        <ele>1845</ele>
        <time>2019-08-10T07:49:51Z</time>
      </trkpt>
      <trkpt lat="42.64071" lon="1.70757">
        <ele>1845</ele>
        <time>2019-08-10T07:50:25Z</time>
      </trkpt>
      <trkpt lat="42.64074" lon="1.7077">
        <ele>1846</ele>
        <time>2019-08-10T07:50:37Z</time>
      </trkpt>
      <trkpt lat="42.64073" lon="1.70783">
        <ele>1851</ele>
        <time>2019-08-10T07:50:55Z</time>
      </trkpt>
      <trkpt lat="42.64076" lon="1.70795">
        <ele>1854</ele>
        <time>2019-08-10T07:51:09Z</time>
      </trkpt>
      <trkpt lat="42.64077" lon="1.70808">
        <ele>1860</ele>
        <time>2019-08-10T07:51:27Z</time>
      </trkpt>
      <trkpt lat="42.64082" lon="1.70819">
        <ele>1862</ele>
        <time>2019-08-10T07:51:38Z</time>
      </trkpt>
      <trkpt lat="42.64082" lon="1.70832">
        <ele>1864</ele>
        <time>2019-08-10T07:51:56Z</time>
      </trkpt>
      <trkpt lat="42.64085" lon="1.70845">
        <ele>1863</ele>
        <time>2019-08-10T07:52:08Z</time>
      </trkpt>
      <trkpt lat="42.64087" lon="1.70858">
        <ele>1864</ele>
        <time>2019-08-10T07:52:21Z</time>
      </trkpt>
      <trkpt lat="42.64089" lon="1.7087">
        <ele>1866</ele>
        <time>2019-08-10T07:52:34Z</time>
      </trkpt>
      <trkpt lat="42.64096" lon="1.70878">
        <ele>1875</ele>
        <time>2019-08-10T07:52:47Z</time>
      </trkpt>
      <trkpt lat="42.641" lon="1.70889">
        <ele>1874</ele>
        <time>2019-08-10T07:52:59Z</time>
      </trkpt>
      <trkpt lat="42.64098" lon="1.70902">
        <ele>1875</ele>
        <time>2019-08-10T07:53:30Z</time>
      </trkpt>
      <trkpt lat="42.64095" lon="1.70914">
        <ele>1877</ele>
        <time>2019-08-10T07:55:10Z</time>
      </trkpt>
      <trkpt lat="42.64096" lon="1.70926">
        <ele>1878</ele>
        <time>2019-08-10T07:55:21Z</time>
      </trkpt>
      <trkpt lat="42.64095" lon="1.70939">
        <ele>1878</ele>
        <time>2019-08-10T07:55:33Z</time>
      </trkpt>
      <trkpt lat="42.64095" lon="1.70952">
        <ele>1881</ele>
        <time>2019-08-10T07:55:46Z</time>
      </trkpt>
      <trkpt lat="42.64097" lon="1.70964">
        <ele>1882</ele>
        <time>2019-08-10T07:55:56Z</time>
      </trkpt>
      <trkpt lat="42.64102" lon="1.70976">
        <ele>1885</ele>
        <time>2019-08-10T07:56:08Z</time>
      </trkpt>
      <trkpt lat="42.64105" lon="1.70988">
        <ele>1887</ele>
        <time>2019-08-10T07:56:32Z</time>
      </trkpt>
      <trkpt lat="42.64109" lon="1.70999">
        <ele>1888</ele>
        <time>2019-08-10T07:56:45Z</time>
      </trkpt>
      <trkpt lat="42.64115" lon="1.7101">
        <ele>1890</ele>
        <time>2019-08-10T07:56:57Z</time>
      </trkpt>
      <trkpt lat="42.6412" lon="1.7102">
        <ele>1890</ele>
        <time>2019-08-10T07:57:07Z</time>
      </trkpt>
      <trkpt lat="42.64126" lon="1.7103">
        <ele>1894</ele>
        <time>2019-08-10T07:57:20Z</time>
      </trkpt>
      <trkpt lat="42.6413" lon="1.71042">
        <ele>1892</ele>
        <time>2019-08-10T07:57:32Z</time>
      </trkpt>
      <trkpt lat="42.64132" lon="1.71056">
        <ele>1893</ele>
        <time>2019-08-10T07:57:46Z</time>
      </trkpt>
      <trkpt lat="42.64139" lon="1.71066">
        <ele>1895</ele>
        <time>2019-08-10T07:57:57Z</time>
      </trkpt>
      <trkpt lat="42.64139" lon="1.71079">
        <ele>1901</ele>
        <time>2019-08-10T08:00:04Z</time>
      </trkpt>
      <trkpt lat="42.6414" lon="1.71091">
        <ele>1903</ele>
        <time>2019-08-10T08:02:29Z</time>
      </trkpt>
      <trkpt lat="42.64145" lon="1.71104">
        <ele>1904</ele>
        <time>2019-08-10T08:02:39Z</time>
      </trkpt>
      <trkpt lat="42.6415" lon="1.71115">
        <ele>1904</ele>
        <time>2019-08-10T08:02:51Z</time>
      </trkpt>
      <trkpt lat="42.64153" lon="1.71128">
        <ele>1903</ele>
        <time>2019-08-10T08:03:01Z</time>
      </trkpt>
      <trkpt lat="42.64152" lon="1.7114">
        <ele>1905</ele>
        <time>2019-08-10T08:03:09Z</time>
      </trkpt>
      <trkpt lat="42.64151" lon="1.71153">
        <ele>1905</ele>
        <time>2019-08-10T08:03:21Z</time>
      </trkpt>
      <trkpt lat="42.64143" lon="1.71161">
        <ele>1907</ele>
        <time>2019-08-10T08:03:35Z</time>
      </trkpt>
      <trkpt lat="42.64151" lon="1.71166">
        <ele>1905</ele>
        <time>2019-08-10T08:04:12Z</time>
      </trkpt>
      <trkpt lat="42.64159" lon="1.71173">
        <ele>1906</ele>
        <time>2019-08-10T08:04:18Z</time>
      </trkpt>
      <trkpt lat="42.64166" lon="1.71182">
        <ele>1906</ele>
        <time>2019-08-10T08:04:26Z</time>
      </trkpt>
      <trkpt lat="42.64174" lon="1.7119">
        <ele>1907</ele>
        <time>2019-08-10T08:04:36Z</time>
      </trkpt>
      <trkpt lat="42.6418" lon="1.712">
        <ele>1911</ele>
        <time>2019-08-10T08:04:47Z</time>
      </trkpt>
      <trkpt lat="42.64182" lon="1.71213">
        <ele>1912</ele>
        <time>2019-08-10T08:04:57Z</time>
      </trkpt>
      <trkpt lat="42.6419" lon="1.71219">
        <ele>1914</ele>
        <time>2019-08-10T08:05:09Z</time>
      </trkpt>
      <trkpt lat="42.642" lon="1.71224">
        <ele>1913</ele>
        <time>2019-08-10T08:05:19Z</time>
      </trkpt>
      <trkpt lat="42.64208" lon="1.71231">
        <ele>1915</ele>
        <time>2019-08-10T08:05:31Z</time>
      </trkpt>
      <trkpt lat="42.64216" lon="1.71236">
        <ele>1921</ele>
        <time>2019-08-10T08:05:45Z</time>
      </trkpt>
      <trkpt lat="42.64221" lon="1.71247">
        <ele>1926</ele>
        <time>2019-08-10T08:06:04Z</time>
      </trkpt>
      <trkpt lat="42.64224" lon="1.71258">
        <ele>1929</ele>
        <time>2019-08-10T08:06:25Z</time>
      </trkpt>
      <trkpt lat="42.64225" lon="1.71271">
        <ele>1933</ele>
        <time>2019-08-10T08:06:46Z</time>
      </trkpt>
      <trkpt lat="42.64228" lon="1.71283">
        <ele>1934</ele>
        <time>2019-08-10T08:07:04Z</time>
      </trkpt>
      <trkpt lat="42.64228" lon="1.71295">
        <ele>1936</ele>
        <time>2019-08-10T08:07:20Z</time>
      </trkpt>
      <trkpt lat="42.64229" lon="1.71308">
        <ele>1940</ele>
        <time>2019-08-10T08:07:40Z</time>
      </trkpt>
      <trkpt lat="42.64235" lon="1.71317">
        <ele>1942</ele>
        <time>2019-08-10T08:08:05Z</time>
      </trkpt>
      <trkpt lat="42.64242" lon="1.71327">
        <ele>1944</ele>
        <time>2019-08-10T08:08:22Z</time>
      </trkpt>
      <trkpt lat="42.64242" lon="1.7134">
        <ele>1949</ele>
        <time>2019-08-10T08:08:35Z</time>
      </trkpt>
      <trkpt lat="42.64241" lon="1.71352">
        <ele>1951</ele>
        <time>2019-08-10T08:09:56Z</time>
      </trkpt>
      <trkpt lat="42.64243" lon="1.71365">
        <ele>1958</ele>
        <time>2019-08-10T08:10:18Z</time>
      </trkpt>
      <trkpt lat="42.64242" lon="1.71378">
        <ele>1958</ele>
        <time>2019-08-10T08:10:33Z</time>
      </trkpt>
      <trkpt lat="42.64244" lon="1.7139">
        <ele>1958</ele>
        <time>2019-08-10T08:10:51Z</time>
      </trkpt>
      <trkpt lat="42.64241" lon="1.71403">
        <ele>1970</ele>
        <time>2019-08-10T08:11:21Z</time>
      </trkpt>
      <trkpt lat="42.64235" lon="1.71412">
        <ele>1972</ele>
        <time>2019-08-10T08:11:31Z</time>
      </trkpt>
      <trkpt lat="42.64236" lon="1.71424">
        <ele>1975</ele>
        <time>2019-08-10T08:11:46Z</time>
      </trkpt>
      <trkpt lat="42.6424" lon="1.71436">
        <ele>1974</ele>
        <time>2019-08-10T08:11:56Z</time>
      </trkpt>
      <trkpt lat="42.64239" lon="1.71448">
        <ele>1974</ele>
        <time>2019-08-10T08:12:08Z</time>
      </trkpt>
      <trkpt lat="42.64232" lon="1.71459">
        <ele>1980</ele>
        <time>2019-08-10T08:12:32Z</time>
      </trkpt>
      <trkpt lat="42.64232" lon="1.71472">
        <ele>1979</ele>
        <time>2019-08-10T08:12:43Z</time>
      </trkpt>
      <trkpt lat="42.64234" lon="1.71485">
        <ele>1981</ele>
        <time>2019-08-10T08:13:05Z</time>
      </trkpt>
      <trkpt lat="42.64233" lon="1.71498">
        <ele>1981</ele>
        <time>2019-08-10T08:13:17Z</time>
      </trkpt>
      <trkpt lat="42.64235" lon="1.71512">
        <ele>1982</ele>
        <time>2019-08-10T08:13:34Z</time>
      </trkpt>
      <trkpt lat="42.64236" lon="1.71525">
        <ele>1985</ele>
        <time>2019-08-10T08:13:50Z</time>
      </trkpt>
      <trkpt lat="42.64236" lon="1.71537">
        <ele>1988</ele>
        <time>2019-08-10T08:14:14Z</time>
      </trkpt>
      <trkpt lat="42.6424" lon="1.71548">
        <ele>1986</ele>
        <time>2019-08-10T08:16:37Z</time>
      </trkpt>
      <trkpt lat="42.6424" lon="1.71561">
        <ele>1990</ele>
        <time>2019-08-10T08:16:53Z</time>
      </trkpt>
      <trkpt lat="42.64237" lon="1.71573">
        <ele>1994</ele>
        <time>2019-08-10T08:17:07Z</time>
      </trkpt>
      <trkpt lat="42.64236" lon="1.71586">
        <ele>1995</ele>
        <time>2019-08-10T08:17:22Z</time>
      </trkpt>
      <trkpt lat="42.64235" lon="1.71598">
        <ele>1998</ele>
        <time>2019-08-10T08:17:38Z</time>
      </trkpt>
      <trkpt lat="42.6424" lon="1.71609">
        <ele>2003</ele>
        <time>2019-08-10T08:17:58Z</time>
      </trkpt>
      <trkpt lat="42.6424" lon="1.71623">
        <ele>2007</ele>
        <time>2019-08-10T08:18:14Z</time>
      </trkpt>
      <trkpt lat="42.6424" lon="1.71636">
        <ele>2013</ele>
        <time>2019-08-10T08:18:37Z</time>
      </trkpt>
      <trkpt lat="42.64243" lon="1.71648">
        <ele>2016</ele>
        <time>2019-08-10T08:18:51Z</time>
      </trkpt>
      <trkpt lat="42.64236" lon="1.71657">
        <ele>2015</ele>
        <time>2019-08-10T08:19:02Z</time>
      </trkpt>
      <trkpt lat="42.64235" lon="1.7167">
        <ele>2019</ele>
        <time>2019-08-10T08:19:19Z</time>
      </trkpt>
      <trkpt lat="42.64237" lon="1.71682">
        <ele>2020</ele>
        <time>2019-08-10T08:19:38Z</time>
      </trkpt>
      <trkpt lat="42.64235" lon="1.71694">
        <ele>2025</ele>
        <time>2019-08-10T08:19:59Z</time>
      </trkpt>
      <trkpt lat="42.6423" lon="1.71705">
        <ele>2029</ele>
        <time>2019-08-10T08:20:12Z</time>
      </trkpt>
      <trkpt lat="42.64228" lon="1.71717">
        <ele>2037</ele>
        <time>2019-08-10T08:20:33Z</time>
      </trkpt>
      <trkpt lat="42.64233" lon="1.71728">
        <ele>2036</ele>
        <time>2019-08-10T08:20:49Z</time>
      </trkpt>
      <trkpt lat="42.64239" lon="1.71739">
        <ele>2036</ele>
        <time>2019-08-10T08:21:13Z</time>
      </trkpt>
      <trkpt lat="42.64242" lon="1.71751">
        <ele>2036</ele>
        <time>2019-08-10T08:21:31Z</time>
      </trkpt>
      <trkpt lat="42.64241" lon="1.71763">
        <ele>2040</ele>
        <time>2019-08-10T08:21:56Z</time>
      </trkpt>
      <trkpt lat="42.6424" lon="1.71776">
        <ele>2040</ele>
        <time>2019-08-10T08:22:11Z</time>
      </trkpt>
      <trkpt lat="42.64236" lon="1.71787">
        <ele>2044</ele>
        <time>2019-08-10T08:22:29Z</time>
      </trkpt>
      <trkpt lat="42.64234" lon="1.718">
        <ele>2048</ele>
        <time>2019-08-10T08:22:43Z</time>
      </trkpt>
      <trkpt lat="42.64232" lon="1.71812">
        <ele>2050</ele>
        <time>2019-08-10T08:22:56Z</time>
      </trkpt>
      <trkpt lat="42.64233" lon="1.71824">
        <ele>2052</ele>
        <time>2019-08-10T08:23:11Z</time>
      </trkpt>
      <trkpt lat="42.64231" lon="1.71836">
        <ele>2056</ele>
        <time>2019-08-10T08:23:30Z</time>
      </trkpt>
      <trkpt lat="42.64237" lon="1.71846">
        <ele>2061</ele>
        <time>2019-08-10T08:23:51Z</time>
      </trkpt>
      <trkpt lat="42.64241" lon="1.71857">
        <ele>2063</ele>
        <time>2019-08-10T08:24:09Z</time>
      </trkpt>
      <trkpt lat="42.6424" lon="1.7187">
        <ele>2067</ele>
        <time>2019-08-10T08:24:27Z</time>
      </trkpt>
      <trkpt lat="42.64238" lon="1.71883">
        <ele>2068</ele>
        <time>2019-08-10T08:24:48Z</time>
      </trkpt>
      <trkpt lat="42.64231" lon="1.71892">
        <ele>2070</ele>
        <time>2019-08-10T08:24:58Z</time>
      </trkpt>
      <trkpt lat="42.64224" lon="1.719">
        <ele>2075</ele>
        <time>2019-08-10T08:25:15Z</time>
      </trkpt>
      <trkpt lat="42.64222" lon="1.71913">
        <ele>2076</ele>
        <time>2019-08-10T08:25:31Z</time>
      </trkpt>
      <trkpt lat="42.64228" lon="1.71923">
        <ele>2076</ele>
        <time>2019-08-10T08:25:49Z</time>
      </trkpt>
      <trkpt lat="42.6423" lon="1.71936">
        <ele>2081</ele>
        <time>2019-08-10T08:26:13Z</time>
      </trkpt>
      <trkpt lat="42.64232" lon="1.71948">
        <ele>2082</ele>
        <time>2019-08-10T08:26:26Z</time>
      </trkpt>
      <trkpt lat="42.64235" lon="1.7196">
        <ele>2085</ele>
        <time>2019-08-10T08:26:52Z</time>
      </trkpt>
      <trkpt lat="42.64234" lon="1.71972">
        <ele>2085</ele>
        <time>2019-08-10T08:27:10Z</time>
      </trkpt>
      <trkpt lat="42.64234" lon="1.71985">
        <ele>2093</ele>
        <time>2019-08-10T08:27:33Z</time>
      </trkpt>
      <trkpt lat="42.64233" lon="1.71998">
        <ele>2090</ele>
        <time>2019-08-10T08:27:58Z</time>
      </trkpt>
      <trkpt lat="42.64225" lon="1.72006">
        <ele>2100</ele>
        <time>2019-08-10T08:28:11Z</time>
      </trkpt>
      <trkpt lat="42.64229" lon="1.72017">
        <ele>2104</ele>
        <time>2019-08-10T08:28:31Z</time>
      </trkpt>
      <trkpt lat="42.64229" lon="1.7203">
        <ele>2107</ele>
        <time>2019-08-10T08:28:53Z</time>
      </trkpt>
      <trkpt lat="42.64224" lon="1.72041">
        <ele>2105</ele>
        <time>2019-08-10T08:29:11Z</time>
      </trkpt>
      <trkpt lat="42.6422" lon="1.72053">
        <ele>2105</ele>
        <time>2019-08-10T08:29:23Z</time>
      </trkpt>
      <trkpt lat="42.64219" lon="1.72065">
        <ele>2105</ele>
        <time>2019-08-10T08:29:38Z</time>
      </trkpt>
      <trkpt lat="42.64218" lon="1.72078">
        <ele>2106</ele>
        <time>2019-08-10T08:29:52Z</time>
      </trkpt>
      <trkpt lat="42.64215" lon="1.72089">
        <ele>2111</ele>
        <time>2019-08-10T08:30:09Z</time>
      </trkpt>
      <trkpt lat="42.64212" lon="1.72102">
        <ele>2112</ele>
        <time>2019-08-10T08:30:29Z</time>
      </trkpt>
      <trkpt lat="42.64209" lon="1.72114">
        <ele>2115</ele>
        <time>2019-08-10T08:30:48Z</time>
      </trkpt>
      <trkpt lat="42.64202" lon="1.72122">
        <ele>2117</ele>
        <time>2019-08-10T08:30:58Z</time>
      </trkpt>
      <trkpt lat="42.64197" lon="1.72133">
        <ele>2114</ele>
        <time>2019-08-10T08:31:50Z</time>
      </trkpt>
      <trkpt lat="42.64189" lon="1.7214">
        <ele>2114</ele>
        <time>2019-08-10T08:32:02Z</time>
      </trkpt>
      <trkpt lat="42.64184" lon="1.72151">
        <ele>2124</ele>
        <time>2019-08-10T08:32:24Z</time>
      </trkpt>
      <trkpt lat="42.64182" lon="1.72163">
        <ele>2123</ele>
        <time>2019-08-10T08:32:38Z</time>
      </trkpt>
      <trkpt lat="42.64178" lon="1.72174">
        <ele>2129</ele>
        <time>2019-08-10T08:32:53Z</time>
      </trkpt>
      <trkpt lat="42.64177" lon="1.72187">
        <ele>2134</ele>
        <time>2019-08-10T08:33:06Z</time>
      </trkpt>
      <trkpt lat="42.64175" lon="1.72199">
        <ele>2131</ele>
        <time>2019-08-10T08:33:18Z</time>
      </trkpt>
      <trkpt lat="42.64171" lon="1.72211">
        <ele>2134</ele>
        <time>2019-08-10T08:36:55Z</time>
      </trkpt>
      <trkpt lat="42.64164" lon="1.72221">
        <ele>2139</ele>
        <time>2019-08-10T08:37:04Z</time>
      </trkpt>
      <trkpt lat="42.64162" lon="1.72234">
        <ele>2139</ele>
        <time>2019-08-10T08:37:20Z</time>
      </trkpt>
      <trkpt lat="42.64157" lon="1.72244">
        <ele>2141</ele>
        <time>2019-08-10T08:37:32Z</time>
      </trkpt>
      <trkpt lat="42.64155" lon="1.72256">
        <ele>2144</ele>
        <time>2019-08-10T08:37:51Z</time>
      </trkpt>
      <trkpt lat="42.64152" lon="1.72268">
        <ele>2146</ele>
        <time>2019-08-10T08:38:04Z</time>
      </trkpt>
      <trkpt lat="42.64152" lon="1.72282">
        <ele>2148</ele>
        <time>2019-08-10T08:38:16Z</time>
      </trkpt>
      <trkpt lat="42.64152" lon="1.72295">
        <ele>2149</ele>
        <time>2019-08-10T08:38:26Z</time>
      </trkpt>
      <trkpt lat="42.64149" lon="1.72307">
        <ele>2149</ele>
        <time>2019-08-10T08:38:39Z</time>
      </trkpt>
      <trkpt lat="42.64146" lon="1.72319">
        <ele>2151</ele>
        <time>2019-08-10T08:38:49Z</time>
      </trkpt>
      <trkpt lat="42.64146" lon="1.72332">
        <ele>2150</ele>
        <time>2019-08-10T08:38:59Z</time>
      </trkpt>
      <trkpt lat="42.64148" lon="1.72344">
        <ele>2148</ele>
        <time>2019-08-10T08:39:10Z</time>
      </trkpt>
      <trkpt lat="42.64152" lon="1.72355">
        <ele>2148</ele>
        <time>2019-08-10T08:39:20Z</time>
      </trkpt>
      <trkpt lat="42.64154" lon="1.72368">
        <ele>2151</ele>
        <time>2019-08-10T08:39:29Z</time>
      </trkpt>
      <trkpt lat="42.64161" lon="1.72378">
        <ele>2153</ele>
        <time>2019-08-10T08:39:39Z</time>
      </trkpt>
      <trkpt lat="42.64162" lon="1.7239">
        <ele>2153</ele>
        <time>2019-08-10T08:39:59Z</time>
      </trkpt>
      <trkpt lat="42.64159" lon="1.72402">
        <ele>2161</ele>
        <time>2019-08-10T08:40:14Z</time>
      </trkpt>
      <trkpt lat="42.6415" lon="1.72406">
        <ele>2159</ele>
        <time>2019-08-10T08:40:35Z</time>
      </trkpt>
      <trkpt lat="42.64141" lon="1.72403">
        <ele>2157</ele>
        <time>2019-08-10T08:41:08Z</time>
      </trkpt>
      <trkpt lat="42.64132" lon="1.72401">
        <ele>2160</ele>
        <time>2019-08-10T08:41:16Z</time>
      </trkpt>
      <trkpt lat="42.64122" lon="1.72402">
        <ele>2157</ele>
        <time>2019-08-10T08:41:40Z</time>
      </trkpt>
      <trkpt lat="42.64113" lon="1.72401">
        <ele>2157</ele>
        <time>2019-08-10T08:41:53Z</time>
      </trkpt>
      <trkpt lat="42.64104" lon="1.72398">
        <ele>2157</ele>
        <time>2019-08-10T08:42:05Z</time>
      </trkpt>
      <trkpt lat="42.64095" lon="1.72405">
        <ele>2162</ele>
        <time>2019-08-10T08:42:15Z</time>
      </trkpt>
      <trkpt lat="42.64086" lon="1.7241">
        <ele>2165</ele>
        <time>2019-08-10T08:42:27Z</time>
      </trkpt>
      <trkpt lat="42.64078" lon="1.72415">
        <ele>2169</ele>
        <time>2019-08-10T08:42:35Z</time>
      </trkpt>
      <trkpt lat="42.64067" lon="1.72412">
        <ele>2173</ele>
        <time>2019-08-10T08:42:50Z</time>
      </trkpt>
      <trkpt lat="42.64058" lon="1.72417">
        <ele>2175</ele>
        <time>2019-08-10T08:43:06Z</time>
      </trkpt>
      <trkpt lat="42.64056" lon="1.72431">
        <ele>2177</ele>
        <time>2019-08-10T08:43:25Z</time>
      </trkpt>
      <trkpt lat="42.64048" lon="1.72425">
        <ele>2179</ele>
        <time>2019-08-10T08:44:11Z</time>
      </trkpt>
      <trkpt lat="42.64039" lon="1.72429">
        <ele>2184</ele>
        <time>2019-08-10T08:44:19Z</time>
      </trkpt>
      <trkpt lat="42.6403" lon="1.72435">
        <ele>2185</ele>
        <time>2019-08-10T08:44:29Z</time>
      </trkpt>
      <trkpt lat="42.64022" lon="1.72441">
        <ele>2184</ele>
        <time>2019-08-10T08:44:42Z</time>
      </trkpt>
      <trkpt lat="42.64014" lon="1.72447">
        <ele>2183</ele>
        <time>2019-08-10T08:44:52Z</time>
      </trkpt>
      <trkpt lat="42.64006" lon="1.72453">
        <ele>2181</ele>
        <time>2019-08-10T08:45:02Z</time>
      </trkpt>
      <trkpt lat="42.63999" lon="1.72461">
        <ele>2182</ele>
        <time>2019-08-10T08:45:11Z</time>
      </trkpt>
      <trkpt lat="42.63993" lon="1.72471">
        <ele>2182</ele>
        <time>2019-08-10T08:45:21Z</time>
      </trkpt>
      <trkpt lat="42.63987" lon="1.72482">
        <ele>2183</ele>
        <time>2019-08-10T08:45:32Z</time>
      </trkpt>
      <trkpt lat="42.63981" lon="1.72493">
        <ele>2182</ele>
        <time>2019-08-10T08:45:41Z</time>
      </trkpt>
      <trkpt lat="42.63978" lon="1.72504">
        <ele>2182</ele>
        <time>2019-08-10T08:45:50Z</time>
      </trkpt>
      <trkpt lat="42.63973" lon="1.72517">
        <ele>2184</ele>
        <time>2019-08-10T08:46:01Z</time>
      </trkpt>
      <trkpt lat="42.63967" lon="1.72528">
        <ele>2184</ele>
        <time>2019-08-10T08:46:10Z</time>
      </trkpt>
      <trkpt lat="42.63959" lon="1.72536">
        <ele>2187</ele>
        <time>2019-08-10T08:46:19Z</time>
      </trkpt>
      <trkpt lat="42.63952" lon="1.72544">
        <ele>2189</ele>
        <time>2019-08-10T08:46:28Z</time>
      </trkpt>
      <trkpt lat="42.63945" lon="1.72553">
        <ele>2189</ele>
        <time>2019-08-10T08:46:38Z</time>
      </trkpt>
      <trkpt lat="42.6394" lon="1.72563">
        <ele>2190</ele>
        <time>2019-08-10T08:46:49Z</time>
      </trkpt>
      <trkpt lat="42.63931" lon="1.72567">
        <ele>2191</ele>
        <time>2019-08-10T08:47:05Z</time>
      </trkpt>
      <trkpt lat="42.63921" lon="1.7257">
        <ele>2193</ele>
        <time>2019-08-10T08:47:14Z</time>
      </trkpt>
      <trkpt lat="42.63912" lon="1.72572">
        <ele>2193</ele>
        <time>2019-08-10T08:47:23Z</time>
      </trkpt>
      <trkpt lat="42.63902" lon="1.72574">
        <ele>2191</ele>
        <time>2019-08-10T08:47:34Z</time>
      </trkpt>
      <trkpt lat="42.63893" lon="1.72574">
        <ele>2191</ele>
        <time>2019-08-10T08:47:45Z</time>
      </trkpt>
      <trkpt lat="42.63883" lon="1.72575">
        <ele>2193</ele>
        <time>2019-08-10T08:47:56Z</time>
      </trkpt>
      <trkpt lat="42.63874" lon="1.72579">
        <ele>2193</ele>
        <time>2019-08-10T08:48:04Z</time>
      </trkpt>
      <trkpt lat="42.63865" lon="1.7258">
        <ele>2191</ele>
        <time>2019-08-10T08:48:15Z</time>
      </trkpt>
      <trkpt lat="42.63856" lon="1.72579">
        <ele>2194</ele>
        <time>2019-08-10T08:48:24Z</time>
      </trkpt>
      <trkpt lat="42.63847" lon="1.72581">
        <ele>2195</ele>
        <time>2019-08-10T08:48:34Z</time>
      </trkpt>
      <trkpt lat="42.63838" lon="1.72581">
        <ele>2197</ele>
        <time>2019-08-10T08:48:46Z</time>
      </trkpt>
      <trkpt lat="42.63829" lon="1.72577">
        <ele>2194</ele>
        <time>2019-08-10T08:48:58Z</time>
      </trkpt>
      <trkpt lat="42.63819" lon="1.72573">
        <ele>2197</ele>
        <time>2019-08-10T08:49:19Z</time>
      </trkpt>
      <trkpt lat="42.63817" lon="1.72585">
        <ele>2195</ele>
        <time>2019-08-10T08:49:39Z</time>
      </trkpt>
      <trkpt lat="42.63809" lon="1.72592">
        <ele>2194</ele>
        <time>2019-08-10T08:49:51Z</time>
      </trkpt>
      <trkpt lat="42.63806" lon="1.72606">
        <ele>2195</ele>
        <time>2019-08-10T08:50:05Z</time>
      </trkpt>
      <trkpt lat="42.63805" lon="1.72593">
        <ele>2193</ele>
        <time>2019-08-10T08:50:16Z</time>
      </trkpt>
      <trkpt lat="42.63795" lon="1.72591">
        <ele>2194</ele>
        <time>2019-08-10T08:50:34Z</time>
      </trkpt>
      <trkpt lat="42.63802" lon="1.72583">
        <ele>2192</ele>
        <time>2019-08-10T08:50:45Z</time>
      </trkpt>
      <trkpt lat="42.63802" lon="1.7257">
        <ele>2194</ele>
        <time>2019-08-10T08:51:31Z</time>
      </trkpt>
      <trkpt lat="42.63793" lon="1.72576">
        <ele>2195</ele>
        <time>2019-08-10T09:15:39Z</time>
      </trkpt>
      <trkpt lat="42.63786" lon="1.72583">
        <ele>2196</ele>
        <time>2019-08-10T09:15:48Z</time>
      </trkpt>
      <trkpt lat="42.63776" lon="1.72581">
        <ele>2196</ele>
        <time>2019-08-10T09:16:00Z</time>
      </trkpt>
      <trkpt lat="42.63767" lon="1.72584">
        <ele>2193</ele>
        <time>2019-08-10T09:16:12Z</time>
      </trkpt>
      <trkpt lat="42.63757" lon="1.72581">
        <ele>2194</ele>
        <time>2019-08-10T09:16:19Z</time>
      </trkpt>
      <trkpt lat="42.63748" lon="1.72584">
        <ele>2195</ele>
        <time>2019-08-10T09:16:29Z</time>
      </trkpt>
      <trkpt lat="42.63738" lon="1.72583">
        <ele>2195</ele>
        <time>2019-08-10T09:16:40Z</time>
      </trkpt>
      <trkpt lat="42.63728" lon="1.72582">
        <ele>2193</ele>
        <time>2019-08-10T09:16:57Z</time>
      </trkpt>
      <trkpt lat="42.63719" lon="1.72582">
        <ele>2188</ele>
        <time>2019-08-10T09:17:10Z</time>
      </trkpt>
      <trkpt lat="42.63709" lon="1.72581">
        <ele>2189</ele>
        <time>2019-08-10T09:17:18Z</time>
      </trkpt>
      <trkpt lat="42.63699" lon="1.72584">
        <ele>2187</ele>
        <time>2019-08-10T09:17:33Z</time>
      </trkpt>
      <trkpt lat="42.63689" lon="1.72579">
        <ele>2185</ele>
        <time>2019-08-10T09:17:43Z</time>
      </trkpt>
      <trkpt lat="42.6368" lon="1.72581">
        <ele>2187</ele>
        <time>2019-08-10T09:17:52Z</time>
      </trkpt>
      <trkpt lat="42.63671" lon="1.72581">
        <ele>2183</ele>
        <time>2019-08-10T09:18:04Z</time>
      </trkpt>
      <trkpt lat="42.63662" lon="1.72587">
        <ele>2185</ele>
        <time>2019-08-10T09:18:13Z</time>
      </trkpt>
      <trkpt lat="42.63653" lon="1.7259">
        <ele>2185</ele>
        <time>2019-08-10T09:18:21Z</time>
      </trkpt>
      <trkpt lat="42.63646" lon="1.72598">
        <ele>2182</ele>
        <time>2019-08-10T09:18:32Z</time>
      </trkpt>
      <trkpt lat="42.63637" lon="1.72603">
        <ele>2181</ele>
        <time>2019-08-10T09:18:43Z</time>
      </trkpt>
      <trkpt lat="42.63628" lon="1.72603">
        <ele>2180</ele>
        <time>2019-08-10T09:18:49Z</time>
      </trkpt>
      <trkpt lat="42.63618" lon="1.72607">
        <ele>2180</ele>
        <time>2019-08-10T09:19:02Z</time>
      </trkpt>
      <trkpt lat="42.6361" lon="1.72613">
        <ele>2180</ele>
        <time>2019-08-10T09:19:15Z</time>
      </trkpt>
      <trkpt lat="42.63605" lon="1.72625">
        <ele>2174</ele>
        <time>2019-08-10T09:19:30Z</time>
      </trkpt>
      <trkpt lat="42.63599" lon="1.72635">
        <ele>2174</ele>
        <time>2019-08-10T09:19:39Z</time>
      </trkpt>
      <trkpt lat="42.63592" lon="1.72644">
        <ele>2175</ele>
        <time>2019-08-10T09:19:47Z</time>
      </trkpt>
      <trkpt lat="42.63584" lon="1.72652">
        <ele>2175</ele>
        <time>2019-08-10T09:20:19Z</time>
      </trkpt>
      <trkpt lat="42.63576" lon="1.72658">
        <ele>2171</ele>
        <time>2019-08-10T09:20:30Z</time>
      </trkpt>
      <trkpt lat="42.63565" lon="1.72661">
        <ele>2173</ele>
        <time>2019-08-10T09:20:42Z</time>
      </trkpt>
      <trkpt lat="42.63556" lon="1.72654">
        <ele>2170</ele>
        <time>2019-08-10T09:21:02Z</time>
      </trkpt>
      <trkpt lat="42.63549" lon="1.72646">
        <ele>2163</ele>
        <time>2019-08-10T09:21:19Z</time>
      </trkpt>
      <trkpt lat="42.63543" lon="1.72655">
        <ele>2161</ele>
        <time>2019-08-10T09:21:32Z</time>
      </trkpt>
      <trkpt lat="42.63534" lon="1.72659">
        <ele>2163</ele>
        <time>2019-08-10T09:22:22Z</time>
      </trkpt>
      <trkpt lat="42.63525" lon="1.72658">
        <ele>2161</ele>
        <time>2019-08-10T09:22:33Z</time>
      </trkpt>
      <trkpt lat="42.63516" lon="1.72654">
        <ele>2161</ele>
        <time>2019-08-10T09:22:41Z</time>
      </trkpt>
      <trkpt lat="42.63507" lon="1.72654">
        <ele>2159</ele>
        <time>2019-08-10T09:22:49Z</time>
      </trkpt>
      <trkpt lat="42.63498" lon="1.72655">
        <ele>2158</ele>
        <time>2019-08-10T09:23:00Z</time>
      </trkpt>
      <trkpt lat="42.63487" lon="1.72655">
        <ele>2156</ele>
        <time>2019-08-10T09:23:22Z</time>
      </trkpt>
      <trkpt lat="42.63478" lon="1.72652">
        <ele>2153</ele>
        <time>2019-08-10T09:23:53Z</time>
      </trkpt>
      <trkpt lat="42.63469" lon="1.72654">
        <ele>2149</ele>
        <time>2019-08-10T09:24:02Z</time>
      </trkpt>
      <trkpt lat="42.6346" lon="1.7265">
        <ele>2143</ele>
        <time>2019-08-10T09:24:29Z</time>
      </trkpt>
      <trkpt lat="42.6345" lon="1.72648">
        <ele>2144</ele>
        <time>2019-08-10T09:24:44Z</time>
      </trkpt>
      <trkpt lat="42.63441" lon="1.72649">
        <ele>2137</ele>
        <time>2019-08-10T09:25:13Z</time>
      </trkpt>
      <trkpt lat="42.63449" lon="1.72641">
        <ele>2138</ele>
        <time>2019-08-10T09:26:41Z</time>
      </trkpt>
      <trkpt lat="42.63457" lon="1.72633">
        <ele>2132</ele>
        <time>2019-08-10T09:26:52Z</time>
      </trkpt>
      <trkpt lat="42.63448" lon="1.72635">
        <ele>2130</ele>
        <time>2019-08-10T09:27:06Z</time>
      </trkpt>
      <trkpt lat="42.63437" lon="1.72633">
        <ele>2128</ele>
        <time>2019-08-10T09:27:16Z</time>
      </trkpt>
      <trkpt lat="42.63429" lon="1.72627">
        <ele>2120</ele>
        <time>2019-08-10T09:27:52Z</time>
      </trkpt>
      <trkpt lat="42.63419" lon="1.72627">
        <ele>2116</ele>
        <time>2019-08-10T09:28:04Z</time>
      </trkpt>
      <trkpt lat="42.6341" lon="1.7263">
        <ele>2112</ele>
        <time>2019-08-10T09:28:16Z</time>
      </trkpt>
      <trkpt lat="42.634" lon="1.72635">
        <ele>2117</ele>
        <time>2019-08-10T09:28:28Z</time>
      </trkpt>
      <trkpt lat="42.63392" lon="1.7264">
        <ele>2118</ele>
        <time>2019-08-10T09:28:38Z</time>
      </trkpt>
      <trkpt lat="42.63383" lon="1.72642">
        <ele>2118</ele>
        <time>2019-08-10T09:28:49Z</time>
      </trkpt>
      <trkpt lat="42.63374" lon="1.72639">
        <ele>2116</ele>
        <time>2019-08-10T09:29:00Z</time>
      </trkpt>
      <trkpt lat="42.63364" lon="1.72637">
        <ele>2118</ele>
        <time>2019-08-10T09:29:07Z</time>
      </trkpt>
      <trkpt lat="42.63355" lon="1.72638">
        <ele>2121</ele>
        <time>2019-08-10T09:29:16Z</time>
      </trkpt>
      <trkpt lat="42.63348" lon="1.72645">
        <ele>2120</ele>
        <time>2019-08-10T09:29:31Z</time>
      </trkpt>
      <trkpt lat="42.63339" lon="1.72646">
        <ele>2124</ele>
        <time>2019-08-10T09:29:48Z</time>
      </trkpt>
      <trkpt lat="42.63329" lon="1.72645">
        <ele>2123</ele>
        <time>2019-08-10T09:29:58Z</time>
      </trkpt>
      <trkpt lat="42.63319" lon="1.72646">
        <ele>2125</ele>
        <time>2019-08-10T09:30:15Z</time>
      </trkpt>
      <trkpt lat="42.6331" lon="1.72652">
        <ele>2126</ele>
        <time>2019-08-10T09:30:28Z</time>
      </trkpt>
      <trkpt lat="42.633" lon="1.72653">
        <ele>2130</ele>
        <time>2019-08-10T09:30:39Z</time>
      </trkpt>
      <trkpt lat="42.6329" lon="1.72651">
        <ele>2131</ele>
        <time>2019-08-10T09:30:49Z</time>
      </trkpt>
      <trkpt lat="42.63283" lon="1.72659">
        <ele>2137</ele>
        <time>2019-08-10T09:31:03Z</time>
      </trkpt>
      <trkpt lat="42.63273" lon="1.72663">
        <ele>2138</ele>
        <time>2019-08-10T09:31:30Z</time>
      </trkpt>
      <trkpt lat="42.63264" lon="1.72667">
        <ele>2133</ele>
        <time>2019-08-10T09:31:47Z</time>
      </trkpt>
      <trkpt lat="42.63255" lon="1.72666">
        <ele>2129</ele>
        <time>2019-08-10T09:32:26Z</time>
      </trkpt>
      <trkpt lat="42.63244" lon="1.72661">
        <ele>2130</ele>
        <time>2019-08-10T09:32:34Z</time>
      </trkpt>
      <trkpt lat="42.63235" lon="1.72659">
        <ele>2127</ele>
        <time>2019-08-10T09:32:41Z</time>
      </trkpt>
      <trkpt lat="42.63224" lon="1.72661">
        <ele>2128</ele>
        <time>2019-08-10T09:32:53Z</time>
      </trkpt>
      <trkpt lat="42.63214" lon="1.72666">
        <ele>2127</ele>
        <time>2019-08-10T09:33:05Z</time>
      </trkpt>
      <trkpt lat="42.63205" lon="1.72669">
        <ele>2127</ele>
        <time>2019-08-10T09:33:16Z</time>
      </trkpt>
      <trkpt lat="42.63195" lon="1.7267">
        <ele>2124</ele>
        <time>2019-08-10T09:33:24Z</time>
      </trkpt>
      <trkpt lat="42.63186" lon="1.72671">
        <ele>2123</ele>
        <time>2019-08-10T09:33:32Z</time>
      </trkpt>
      <trkpt lat="42.63177" lon="1.72675">
        <ele>2124</ele>
        <time>2019-08-10T09:33:42Z</time>
      </trkpt>
      <trkpt lat="42.63167" lon="1.72678">
        <ele>2124</ele>
        <time>2019-08-10T09:33:57Z</time>
      </trkpt>
      <trkpt lat="42.63157" lon="1.72679">
        <ele>2124</ele>
        <time>2019-08-10T09:34:08Z</time>
      </trkpt>
      <trkpt lat="42.63147" lon="1.72677">
        <ele>2121</ele>
        <time>2019-08-10T09:34:32Z</time>
      </trkpt>
      <trkpt lat="42.63138" lon="1.72675">
        <ele>2122</ele>
        <time>2019-08-10T09:34:42Z</time>
      </trkpt>
      <trkpt lat="42.6313" lon="1.72669">
        <ele>2122</ele>
        <time>2019-08-10T09:35:00Z</time>
      </trkpt>
      <trkpt lat="42.63127" lon="1.72657">
        <ele>2123</ele>
        <time>2019-08-10T09:38:27Z</time>
      </trkpt>
      <trkpt lat="42.63118" lon="1.7266">
        <ele>2125</ele>
        <time>2019-08-10T09:38:45Z</time>
      </trkpt>
      <trkpt lat="42.63108" lon="1.72661">
        <ele>2124</ele>
        <time>2019-08-10T09:38:56Z</time>
      </trkpt>
      <trkpt lat="42.63099" lon="1.7266">
        <ele>2125</ele>
        <time>2019-08-10T09:39:16Z</time>
      </trkpt>
      <trkpt lat="42.63108" lon="1.7266">
        <ele>2127</ele>
        <time>2019-08-10T09:40:12Z</time>
      </trkpt>
      <trkpt lat="42.63117" lon="1.72657">
        <ele>2127</ele>
        <time>2019-08-10T09:40:36Z</time>
      </trkpt>
      <trkpt lat="42.63117" lon="1.72644">
        <ele>2117</ele>
        <time>2019-08-10T09:43:33Z</time>
      </trkpt>
      <trkpt lat="42.63121" lon="1.72633">
        <ele>2114</ele>
        <time>2019-08-10T09:43:43Z</time>
      </trkpt>
      <trkpt lat="42.63125" lon="1.72622">
        <ele>2111</ele>
        <time>2019-08-10T09:44:05Z</time>
      </trkpt>
      <trkpt lat="42.63126" lon="1.72609">
        <ele>2108</ele>
        <time>2019-08-10T09:44:22Z</time>
      </trkpt>
      <trkpt lat="42.63116" lon="1.72612">
        <ele>2105</ele>
        <time>2019-08-10T09:44:34Z</time>
      </trkpt>
      <trkpt lat="42.63107" lon="1.72615">
        <ele>2103</ele>
        <time>2019-08-10T09:44:50Z</time>
      </trkpt>
      <trkpt lat="42.63102" lon="1.72604">
        <ele>2105</ele>
        <time>2019-08-10T09:45:10Z</time>
      </trkpt>
      <trkpt lat="42.63093" lon="1.72598">
        <ele>2105</ele>
        <time>2019-08-10T09:45:35Z</time>
      </trkpt>
      <trkpt lat="42.63085" lon="1.7259">
        <ele>2106</ele>
        <time>2019-08-10T09:45:47Z</time>
      </trkpt>
      <trkpt lat="42.63077" lon="1.72586">
        <ele>2103</ele>
        <time>2019-08-10T09:45:56Z</time>
      </trkpt>
      <trkpt lat="42.63068" lon="1.72586">
        <ele>2102</ele>
        <time>2019-08-10T09:46:09Z</time>
      </trkpt>
      <trkpt lat="42.63058" lon="1.72582">
        <ele>2104</ele>
        <time>2019-08-10T09:46:22Z</time>
      </trkpt>
      <trkpt lat="42.63048" lon="1.72585">
        <ele>2101</ele>
        <time>2019-08-10T09:46:36Z</time>
      </trkpt>
      <trkpt lat="42.6304" lon="1.7259">
        <ele>2103</ele>
        <time>2019-08-10T09:46:47Z</time>
      </trkpt>
      <trkpt lat="42.63032" lon="1.72586">
        <ele>2099</ele>
        <time>2019-08-10T09:47:04Z</time>
      </trkpt>
      <trkpt lat="42.63023" lon="1.72592">
        <ele>2099</ele>
        <time>2019-08-10T09:47:18Z</time>
      </trkpt>
      <trkpt lat="42.63016" lon="1.726">
        <ele>2101</ele>
        <time>2019-08-10T09:47:42Z</time>
      </trkpt>
      <trkpt lat="42.63008" lon="1.72606">
        <ele>2102</ele>
        <time>2019-08-10T09:47:58Z</time>
      </trkpt>
      <trkpt lat="42.62998" lon="1.72601">
        <ele>2102</ele>
        <time>2019-08-10T09:48:38Z</time>
      </trkpt>
      <trkpt lat="42.62989" lon="1.72597">
        <ele>2098</ele>
        <time>2019-08-10T09:49:00Z</time>
      </trkpt>
      <trkpt lat="42.62979" lon="1.72593">
        <ele>2102</ele>
        <time>2019-08-10T09:49:57Z</time>
      </trkpt>
      <trkpt lat="42.62971" lon="1.72586">
        <ele>2102</ele>
        <time>2019-08-10T09:50:09Z</time>
      </trkpt>
      <trkpt lat="42.62962" lon="1.72583">
        <ele>2103</ele>
        <time>2019-08-10T09:50:22Z</time>
      </trkpt>
      <trkpt lat="42.62953" lon="1.72577">
        <ele>2102</ele>
        <time>2019-08-10T09:50:40Z</time>
      </trkpt>
      <trkpt lat="42.62944" lon="1.72574">
        <ele>2100</ele>
        <time>2019-08-10T09:50:55Z</time>
      </trkpt>
      <trkpt lat="42.62935" lon="1.72575">
        <ele>2102</ele>
        <time>2019-08-10T09:51:08Z</time>
      </trkpt>
      <trkpt lat="42.62926" lon="1.7258">
        <ele>2105</ele>
        <time>2019-08-10T09:51:20Z</time>
      </trkpt>
      <trkpt lat="42.62917" lon="1.72581">
        <ele>2105</ele>
        <time>2019-08-10T09:51:35Z</time>
      </trkpt>
      <trkpt lat="42.62909" lon="1.72588">
        <ele>2106</ele>
        <time>2019-08-10T09:51:53Z</time>
      </trkpt>
      <trkpt lat="42.62901" lon="1.72594">
        <ele>2106</ele>
        <time>2019-08-10T09:52:04Z</time>
      </trkpt>
      <trkpt lat="42.62892" lon="1.72595">
        <ele>2109</ele>
        <time>2019-08-10T09:52:19Z</time>
      </trkpt>
      <trkpt lat="42.62886" lon="1.72604">
        <ele>2107</ele>
        <time>2019-08-10T09:52:27Z</time>
      </trkpt>
      <trkpt lat="42.62876" lon="1.7261">
        <ele>2106</ele>
        <time>2019-08-10T09:52:38Z</time>
      </trkpt>
      <trkpt lat="42.62868" lon="1.72618">
        <ele>2106</ele>
        <time>2019-08-10T09:52:49Z</time>
      </trkpt>
      <trkpt lat="42.62859" lon="1.72622">
        <ele>2107</ele>
        <time>2019-08-10T09:53:00Z</time>
      </trkpt>
      <trkpt lat="42.62853" lon="1.72632">
        <ele>2106</ele>
        <time>2019-08-10T09:53:19Z</time>
      </trkpt>
      <trkpt lat="42.62844" lon="1.72638">
        <ele>2107</ele>
        <time>2019-08-10T09:53:29Z</time>
      </trkpt>
      <trkpt lat="42.62837" lon="1.72646">
        <ele>2107</ele>
        <time>2019-08-10T09:53:38Z</time>
      </trkpt>
      <trkpt lat="42.6283" lon="1.72653">
        <ele>2107</ele>
        <time>2019-08-10T09:53:49Z</time>
      </trkpt>
      <trkpt lat="42.62823" lon="1.72662">
        <ele>2106</ele>
        <time>2019-08-10T09:54:02Z</time>
      </trkpt>
      <trkpt lat="42.62816" lon="1.72672">
        <ele>2108</ele>
        <time>2019-08-10T09:54:15Z</time>
      </trkpt>
      <trkpt lat="42.62811" lon="1.72682">
        <ele>2110</ele>
        <time>2019-08-10T09:54:30Z</time>
      </trkpt>
      <trkpt lat="42.62803" lon="1.72689">
        <ele>2113</ele>
        <time>2019-08-10T09:54:51Z</time>
      </trkpt>
      <trkpt lat="42.62794" lon="1.72691">
        <ele>2117</ele>
        <time>2019-08-10T09:55:16Z</time>
      </trkpt>
      <trkpt lat="42.62785" lon="1.72686">
        <ele>2124</ele>
        <time>2019-08-10T09:55:50Z</time>
      </trkpt>
      <trkpt lat="42.62774" lon="1.72687">
        <ele>2129</ele>
        <time>2019-08-10T09:56:12Z</time>
      </trkpt>
      <trkpt lat="42.62765" lon="1.72687">
        <ele>2129</ele>
        <time>2019-08-10T09:56:25Z</time>
      </trkpt>
      <trkpt lat="42.62756" lon="1.7269">
        <ele>2132</ele>
        <time>2019-08-10T09:56:37Z</time>
      </trkpt>
      <trkpt lat="42.62747" lon="1.72691">
        <ele>2130</ele>
        <time>2019-08-10T09:56:50Z</time>
      </trkpt>
      <trkpt lat="42.62738" lon="1.72686">
        <ele>2130</ele>
        <time>2019-08-10T09:57:00Z</time>
      </trkpt>
      <trkpt lat="42.62729" lon="1.72679">
        <ele>2130</ele>
        <time>2019-08-10T09:57:12Z</time>
      </trkpt>
      <trkpt lat="42.62723" lon="1.7267">
        <ele>2129</ele>
        <time>2019-08-10T09:57:26Z</time>
      </trkpt>
      <trkpt lat="42.62715" lon="1.72663">
        <ele>2123</ele>
        <time>2019-08-10T09:57:41Z</time>
      </trkpt>
      <trkpt lat="42.62706" lon="1.72663">
        <ele>2120</ele>
        <time>2019-08-10T09:57:54Z</time>
      </trkpt>
      <trkpt lat="42.62697" lon="1.7266">
        <ele>2117</ele>
        <time>2019-08-10T10:05:37Z</time>
      </trkpt>
      <trkpt lat="42.62688" lon="1.72655">
        <ele>2121</ele>
        <time>2019-08-10T10:05:43Z</time>
      </trkpt>
      <trkpt lat="42.6268" lon="1.72648">
        <ele>2119</ele>
        <time>2019-08-10T10:05:49Z</time>
      </trkpt>
      <trkpt lat="42.62673" lon="1.7264">
        <ele>2119</ele>
        <time>2019-08-10T10:05:57Z</time>
      </trkpt>
      <trkpt lat="42.62665" lon="1.72632">
        <ele>2125</ele>
        <time>2019-08-10T10:06:05Z</time>
      </trkpt>
      <trkpt lat="42.62657" lon="1.72626">
        <ele>2122</ele>
        <time>2019-08-10T10:06:14Z</time>
      </trkpt>
      <trkpt lat="42.62647" lon="1.72627">
        <ele>2119</ele>
        <time>2019-08-10T10:06:25Z</time>
      </trkpt>
      <trkpt lat="42.62637" lon="1.72625">
        <ele>2119</ele>
        <time>2019-08-10T10:06:35Z</time>
      </trkpt>
      <trkpt lat="42.62628" lon="1.72626">
        <ele>2124</ele>
        <time>2019-08-10T10:06:43Z</time>
      </trkpt>
      <trkpt lat="42.62617" lon="1.72626">
        <ele>2123</ele>
        <time>2019-08-10T10:06:52Z</time>
      </trkpt>
      <trkpt lat="42.62608" lon="1.72623">
        <ele>2121</ele>
        <time>2019-08-10T10:07:01Z</time>
      </trkpt>
      <trkpt lat="42.626" lon="1.72617">
        <ele>2121</ele>
        <time>2019-08-10T10:07:11Z</time>
      </trkpt>
      <trkpt lat="42.6259" lon="1.72613">
        <ele>2122</ele>
        <time>2019-08-10T10:07:19Z</time>
      </trkpt>
      <trkpt lat="42.62582" lon="1.72605">
        <ele>2120</ele>
        <time>2019-08-10T10:07:30Z</time>
      </trkpt>
      <trkpt lat="42.62574" lon="1.726">
        <ele>2122</ele>
        <time>2019-08-10T10:07:36Z</time>
      </trkpt>
      <trkpt lat="42.62565" lon="1.72597">
        <ele>2121</ele>
        <time>2019-08-10T10:07:47Z</time>
      </trkpt>
      <trkpt lat="42.62556" lon="1.72592">
        <ele>2119</ele>
        <time>2019-08-10T10:07:55Z</time>
      </trkpt>
      <trkpt lat="42.62546" lon="1.72585">
        <ele>2127</ele>
        <time>2019-08-10T10:08:03Z</time>
      </trkpt>
      <trkpt lat="42.62538" lon="1.7259">
        <ele>2132</ele>
        <time>2019-08-10T10:09:04Z</time>
      </trkpt>
      <trkpt lat="42.62528" lon="1.72591">
        <ele>2128</ele>
        <time>2019-08-10T10:09:17Z</time>
      </trkpt>
      <trkpt lat="42.62525" lon="1.7258">
        <ele>2127</ele>
        <time>2019-08-10T10:09:52Z</time>
      </trkpt>
      <trkpt lat="42.62519" lon="1.72571">
        <ele>2124</ele>
        <time>2019-08-10T10:10:02Z</time>
      </trkpt>
      <trkpt lat="42.62509" lon="1.72569">
        <ele>2123</ele>
        <time>2019-08-10T10:10:14Z</time>
      </trkpt>
      <trkpt lat="42.62501" lon="1.72577">
        <ele>2125</ele>
        <time>2019-08-10T10:10:26Z</time>
      </trkpt>
      <trkpt lat="42.62494" lon="1.72584">
        <ele>2124</ele>
        <time>2019-08-10T10:10:34Z</time>
      </trkpt>
      <trkpt lat="42.62484" lon="1.72584">
        <ele>2126</ele>
        <time>2019-08-10T10:10:48Z</time>
      </trkpt>
      <trkpt lat="42.62476" lon="1.72578">
        <ele>2132</ele>
        <time>2019-08-10T10:11:11Z</time>
      </trkpt>
      <trkpt lat="42.62467" lon="1.7258">
        <ele>2133</ele>
        <time>2019-08-10T10:11:28Z</time>
      </trkpt>
      <trkpt lat="42.62464" lon="1.72568">
        <ele>2138</ele>
        <time>2019-08-10T10:12:03Z</time>
      </trkpt>
      <trkpt lat="42.62457" lon="1.72577">
        <ele>2141</ele>
        <time>2019-08-10T10:12:37Z</time>
      </trkpt>
      <trkpt lat="42.62448" lon="1.72574">
        <ele>2138</ele>
        <time>2019-08-10T10:13:03Z</time>
      </trkpt>
      <trkpt lat="42.6244" lon="1.72568">
        <ele>2138</ele>
        <time>2019-08-10T10:13:16Z</time>
      </trkpt>
      <trkpt lat="42.62431" lon="1.72566">
        <ele>2142</ele>
        <time>2019-08-10T10:13:45Z</time>
      </trkpt>
      <trkpt lat="42.62422" lon="1.72562">
        <ele>2151</ele>
        <time>2019-08-10T10:14:17Z</time>
      </trkpt>
      <trkpt lat="42.62413" lon="1.72566">
        <ele>2154</ele>
        <time>2019-08-10T10:14:30Z</time>
      </trkpt>
      <trkpt lat="42.62404" lon="1.72567">
        <ele>2156</ele>
        <time>2019-08-10T10:15:01Z</time>
      </trkpt>
      <trkpt lat="42.62397" lon="1.72559">
        <ele>2155</ele>
        <time>2019-08-10T10:15:26Z</time>
      </trkpt>
      <trkpt lat="42.62391" lon="1.72549">
        <ele>2164</ele>
        <time>2019-08-10T10:16:08Z</time>
      </trkpt>
      <trkpt lat="42.62381" lon="1.72548">
        <ele>2168</ele>
        <time>2019-08-10T10:16:37Z</time>
      </trkpt>
      <trkpt lat="42.62378" lon="1.72536">
        <ele>2172</ele>
        <time>2019-08-10T10:17:35Z</time>
      </trkpt>
      <trkpt lat="42.62372" lon="1.72527">
        <ele>2178</ele>
        <time>2019-08-10T10:18:08Z</time>
      </trkpt>
      <trkpt lat="42.62363" lon="1.72521">
        <ele>2194</ele>
        <time>2019-08-10T10:19:31Z</time>
      </trkpt>
      <trkpt lat="42.62354" lon="1.72521">
        <ele>2198</ele>
        <time>2019-08-10T10:19:53Z</time>
      </trkpt>
      <trkpt lat="42.62355" lon="1.72508">
        <ele>2193</ele>
        <time>2019-08-10T10:20:14Z</time>
      </trkpt>
      <trkpt lat="42.62346" lon="1.72503">
        <ele>2187</ele>
        <time>2019-08-10T10:20:42Z</time>
      </trkpt>
      <trkpt lat="42.62337" lon="1.72506">
        <ele>2192</ele>
        <time>2019-08-10T10:21:25Z</time>
      </trkpt>
      <trkpt lat="42.62333" lon="1.72517">
        <ele>2193</ele>
        <time>2019-08-10T10:21:36Z</time>
      </trkpt>
      <trkpt lat="42.62329" lon="1.7253">
        <ele>2201</ele>
        <time>2019-08-10T10:22:10Z</time>
      </trkpt>
      <trkpt lat="42.6232" lon="1.72527">
        <ele>2211</ele>
        <time>2019-08-10T10:22:48Z</time>
      </trkpt>
      <trkpt lat="42.62311" lon="1.72531">
        <ele>2224</ele>
        <time>2019-08-10T10:24:02Z</time>
      </trkpt>
      <trkpt lat="42.62304" lon="1.72524">
        <ele>2227</ele>
        <time>2019-08-10T10:24:54Z</time>
      </trkpt>
      <trkpt lat="42.62299" lon="1.72511">
        <ele>2230</ele>
        <time>2019-08-10T10:25:17Z</time>
      </trkpt>
      <trkpt lat="42.6229" lon="1.72511">
        <ele>2236</ele>
        <time>2019-08-10T10:26:05Z</time>
      </trkpt>
      <trkpt lat="42.62283" lon="1.72504">
        <ele>2246</ele>
        <time>2019-08-10T10:33:36Z</time>
      </trkpt>
      <trkpt lat="42.62276" lon="1.72512">
        <ele>2245</ele>
        <time>2019-08-10T10:33:56Z</time>
      </trkpt>
      <trkpt lat="42.62273" lon="1.72524">
        <ele>2243</ele>
        <time>2019-08-10T10:34:16Z</time>
      </trkpt>
      <trkpt lat="42.62271" lon="1.72536">
        <ele>2246</ele>
        <time>2019-08-10T10:34:29Z</time>
      </trkpt>
      <trkpt lat="42.62271" lon="1.72549">
        <ele>2251</ele>
        <time>2019-08-10T10:34:45Z</time>
      </trkpt>
      <trkpt lat="42.62269" lon="1.72537">
        <ele>2263</ele>
        <time>2019-08-10T10:35:24Z</time>
      </trkpt>
      <trkpt lat="42.62266" lon="1.72525">
        <ele>2267</ele>
        <time>2019-08-10T10:35:46Z</time>
      </trkpt>
      <trkpt lat="42.62258" lon="1.72533">
        <ele>2264</ele>
        <time>2019-08-10T10:35:59Z</time>
      </trkpt>
      <trkpt lat="42.62255" lon="1.72521">
        <ele>2275</ele>
        <time>2019-08-10T10:36:32Z</time>
      </trkpt>
      <trkpt lat="42.62253" lon="1.72509">
        <ele>2277</ele>
        <time>2019-08-10T10:36:45Z</time>
      </trkpt>
      <trkpt lat="42.62245" lon="1.72518">
        <ele>2275</ele>
        <time>2019-08-10T10:37:19Z</time>
      </trkpt>
      <trkpt lat="42.62242" lon="1.72529">
        <ele>2275</ele>
        <time>2019-08-10T10:37:29Z</time>
      </trkpt>
      <trkpt lat="42.6224" lon="1.72541">
        <ele>2274</ele>
        <time>2019-08-10T10:37:46Z</time>
      </trkpt>
      <trkpt lat="42.6224" lon="1.72554">
        <ele>2275</ele>
        <time>2019-08-10T10:37:57Z</time>
      </trkpt>
      <trkpt lat="42.62238" lon="1.72567">
        <ele>2280</ele>
        <time>2019-08-10T10:38:26Z</time>
      </trkpt>
      <trkpt lat="42.62231" lon="1.72558">
        <ele>2291</ele>
        <time>2019-08-10T10:39:16Z</time>
      </trkpt>
      <trkpt lat="42.62222" lon="1.72558">
        <ele>2297</ele>
        <time>2019-08-10T10:39:53Z</time>
      </trkpt>
      <trkpt lat="42.62215" lon="1.72566">
        <ele>2304</ele>
        <time>2019-08-10T10:40:21Z</time>
      </trkpt>
      <trkpt lat="42.62212" lon="1.72554">
        <ele>2312</ele>
        <time>2019-08-10T10:41:15Z</time>
      </trkpt>
      <trkpt lat="42.62207" lon="1.72542">
        <ele>2313</ele>
        <time>2019-08-10T10:41:31Z</time>
      </trkpt>
      <trkpt lat="42.622" lon="1.72551">
        <ele>2316</ele>
        <time>2019-08-10T10:41:59Z</time>
      </trkpt>
      <trkpt lat="42.62191" lon="1.72557">
        <ele>2321</ele>
        <time>2019-08-10T10:42:41Z</time>
      </trkpt>
      <trkpt lat="42.62182" lon="1.72559">
        <ele>2318</ele>
        <time>2019-08-10T10:43:03Z</time>
      </trkpt>
      <trkpt lat="42.62172" lon="1.72565">
        <ele>2321</ele>
        <time>2019-08-10T10:43:21Z</time>
      </trkpt>
      <trkpt lat="42.62165" lon="1.72575">
        <ele>2319</ele>
        <time>2019-08-10T10:43:43Z</time>
      </trkpt>
      <trkpt lat="42.62157" lon="1.7258">
        <ele>2326</ele>
        <time>2019-08-10T10:44:03Z</time>
      </trkpt>
      <trkpt lat="42.62149" lon="1.72587">
        <ele>2328</ele>
        <time>2019-08-10T10:44:21Z</time>
      </trkpt>
      <trkpt lat="42.6214" lon="1.72591">
        <ele>2326</ele>
        <time>2019-08-10T10:44:38Z</time>
      </trkpt>
      <trkpt lat="42.62131" lon="1.72596">
        <ele>2332</ele>
        <time>2019-08-10T10:45:09Z</time>
      </trkpt>
      <trkpt lat="42.62122" lon="1.72599">
        <ele>2338</ele>
        <time>2019-08-10T10:45:30Z</time>
      </trkpt>
      <trkpt lat="42.62114" lon="1.72605">
        <ele>2338</ele>
        <time>2019-08-10T10:45:50Z</time>
      </trkpt>
      <trkpt lat="42.62113" lon="1.72618">
        <ele>2335</ele>
        <time>2019-08-10T10:46:08Z</time>
      </trkpt>
      <trkpt lat="42.62106" lon="1.72627">
        <ele>2336</ele>
        <time>2019-08-10T10:46:24Z</time>
      </trkpt>
      <trkpt lat="42.62109" lon="1.7264">
        <ele>2337</ele>
        <time>2019-08-10T10:46:46Z</time>
      </trkpt>
      <trkpt lat="42.62112" lon="1.72652">
        <ele>2337</ele>
        <time>2019-08-10T10:46:55Z</time>
      </trkpt>
      <trkpt lat="42.62116" lon="1.72663">
        <ele>2336</ele>
        <time>2019-08-10T10:47:05Z</time>
      </trkpt>
      <trkpt lat="42.6212" lon="1.72674">
        <ele>2340</ele>
        <time>2019-08-10T10:47:18Z</time>
      </trkpt>
      <trkpt lat="42.62124" lon="1.72686">
        <ele>2344</ele>
        <time>2019-08-10T10:48:35Z</time>
      </trkpt>
      <trkpt lat="42.62133" lon="1.7269">
        <ele>2344</ele>
        <time>2019-08-10T10:52:54Z</time>
      </trkpt>
      <trkpt lat="42.62141" lon="1.72698">
        <ele>2338</ele>
        <time>2019-08-10T10:53:08Z</time>
      </trkpt>
      <trkpt lat="42.62149" lon="1.72705">
        <ele>2335</ele>
        <time>2019-08-10T10:53:21Z</time>
      </trkpt>
      <trkpt lat="42.62153" lon="1.72715">
        <ele>2335</ele>
        <time>2019-08-10T10:53:41Z</time>
      </trkpt>
      <trkpt lat="42.62155" lon="1.72728">
        <ele>2336</ele>
        <time>2019-08-10T10:53:55Z</time>
      </trkpt>
      <trkpt lat="42.62155" lon="1.7274">
        <ele>2333</ele>
        <time>2019-08-10T10:54:05Z</time>
      </trkpt>
      <trkpt lat="42.62155" lon="1.72754">
        <ele>2334</ele>
        <time>2019-08-10T10:54:24Z</time>
      </trkpt>
      <trkpt lat="42.62157" lon="1.72766">
        <ele>2334</ele>
        <time>2019-08-10T10:54:37Z</time>
      </trkpt>
      <trkpt lat="42.62166" lon="1.72767">
        <ele>2335</ele>
        <time>2019-08-10T10:54:49Z</time>
      </trkpt>
      <trkpt lat="42.62176" lon="1.72768">
        <ele>2336</ele>
        <time>2019-08-10T10:54:59Z</time>
      </trkpt>
      <trkpt lat="42.62185" lon="1.72775">
        <ele>2336</ele>
        <time>2019-08-10T10:55:21Z</time>
      </trkpt>
      <trkpt lat="42.62186" lon="1.72789">
        <ele>2340</ele>
        <time>2019-08-10T10:55:40Z</time>
      </trkpt>
      <trkpt lat="42.62194" lon="1.72795">
        <ele>2341</ele>
        <time>2019-08-10T10:55:52Z</time>
      </trkpt>
      <trkpt lat="42.62196" lon="1.72807">
        <ele>2341</ele>
        <time>2019-08-10T10:56:06Z</time>
      </trkpt>
      <trkpt lat="42.62191" lon="1.72818">
        <ele>2340</ele>
        <time>2019-08-10T10:56:27Z</time>
      </trkpt>
      <trkpt lat="42.62182" lon="1.72819">
        <ele>2342</ele>
        <time>2019-08-10T10:56:38Z</time>
      </trkpt>
      <trkpt lat="42.62177" lon="1.72828">
        <ele>2345</ele>
        <time>2019-08-10T10:56:47Z</time>
      </trkpt>
      <trkpt lat="42.62173" lon="1.7284">
        <ele>2344</ele>
        <time>2019-08-10T10:57:00Z</time>
      </trkpt>
      <trkpt lat="42.62175" lon="1.72852">
        <ele>2344</ele>
        <time>2019-08-10T10:57:09Z</time>
      </trkpt>
      <trkpt lat="42.62179" lon="1.72864">
        <ele>2344</ele>
        <time>2019-08-10T10:57:25Z</time>
      </trkpt>
      <trkpt lat="42.62173" lon="1.72874">
        <ele>2344</ele>
        <time>2019-08-10T10:57:56Z</time>
      </trkpt>
      <trkpt lat="42.62167" lon="1.72884">
        <ele>2344</ele>
        <time>2019-08-10T10:58:07Z</time>
      </trkpt>
      <trkpt lat="42.62163" lon="1.72896">
        <ele>2346</ele>
        <time>2019-08-10T10:58:29Z</time>
      </trkpt>
      <trkpt lat="42.62159" lon="1.72908">
        <ele>2347</ele>
        <time>2019-08-10T10:58:48Z</time>
      </trkpt>
      <trkpt lat="42.62158" lon="1.7292">
        <ele>2353</ele>
        <time>2019-08-10T10:59:12Z</time>
      </trkpt>
      <trkpt lat="42.62154" lon="1.72931">
        <ele>2354</ele>
        <time>2019-08-10T10:59:31Z</time>
      </trkpt>
      <trkpt lat="42.62149" lon="1.72942">
        <ele>2359</ele>
        <time>2019-08-10T10:59:55Z</time>
      </trkpt>
      <trkpt lat="42.62148" lon="1.72955">
        <ele>2355</ele>
        <time>2019-08-10T11:00:06Z</time>
      </trkpt>
      <trkpt lat="42.62142" lon="1.72965">
        <ele>2355</ele>
        <time>2019-08-10T11:00:18Z</time>
      </trkpt>
      <trkpt lat="42.62139" lon="1.72977">
        <ele>2352</ele>
        <time>2019-08-10T11:00:31Z</time>
      </trkpt>
      <trkpt lat="42.62137" lon="1.7299">
        <ele>2350</ele>
        <time>2019-08-10T11:00:43Z</time>
      </trkpt>
      <trkpt lat="42.62133" lon="1.73002">
        <ele>2348</ele>
        <time>2019-08-10T11:01:04Z</time>
      </trkpt>
      <trkpt lat="42.62128" lon="1.73012">
        <ele>2348</ele>
        <time>2019-08-10T11:01:33Z</time>
      </trkpt>
      <trkpt lat="42.62122" lon="1.73022">
        <ele>2351</ele>
        <time>2019-08-10T11:02:06Z</time>
      </trkpt>
      <trkpt lat="42.62115" lon="1.7303">
        <ele>2352</ele>
        <time>2019-08-10T11:02:30Z</time>
      </trkpt>
      <trkpt lat="42.62109" lon="1.73039">
        <ele>2349</ele>
        <time>2019-08-10T11:03:27Z</time>
      </trkpt>
      <trkpt lat="42.621" lon="1.7304">
        <ele>2348</ele>
        <time>2019-08-10T11:03:57Z</time>
      </trkpt>
      <trkpt lat="42.62092" lon="1.73046">
        <ele>2347</ele>
        <time>2019-08-10T11:06:24Z</time>
      </trkpt>
      <trkpt lat="42.62083" lon="1.73042">
        <ele>2345</ele>
        <time>2019-08-10T11:06:44Z</time>
      </trkpt>
      <trkpt lat="42.62073" lon="1.73041">
        <ele>2348</ele>
        <time>2019-08-10T11:06:57Z</time>
      </trkpt>
      <trkpt lat="42.62065" lon="1.73035">
        <ele>2350</ele>
        <time>2019-08-10T11:07:14Z</time>
      </trkpt>
      <trkpt lat="42.62056" lon="1.7303">
        <ele>2348</ele>
        <time>2019-08-10T11:07:26Z</time>
      </trkpt>
      <trkpt lat="42.62047" lon="1.73033">
        <ele>2344</ele>
        <time>2019-08-10T11:07:49Z</time>
      </trkpt>
      <trkpt lat="42.62044" lon="1.73022">
        <ele>2334</ele>
        <time>2019-08-10T11:08:22Z</time>
      </trkpt>
      <trkpt lat="42.62035" lon="1.73019">
        <ele>2333</ele>
        <time>2019-08-10T11:08:37Z</time>
      </trkpt>
      <trkpt lat="42.62026" lon="1.73022">
        <ele>2335</ele>
        <time>2019-08-10T11:08:51Z</time>
      </trkpt>
      <trkpt lat="42.62017" lon="1.73019">
        <ele>2337</ele>
        <time>2019-08-10T11:09:06Z</time>
      </trkpt>
      <trkpt lat="42.62007" lon="1.73018">
        <ele>2340</ele>
        <time>2019-08-10T11:09:24Z</time>
      </trkpt>
      <trkpt lat="42.61998" lon="1.73012">
        <ele>2340</ele>
        <time>2019-08-10T11:09:33Z</time>
      </trkpt>
      <trkpt lat="42.61988" lon="1.73009">
        <ele>2341</ele>
        <time>2019-08-10T11:09:46Z</time>
      </trkpt>
      <trkpt lat="42.61979" lon="1.73013">
        <ele>2340</ele>
        <time>2019-08-10T11:09:59Z</time>
      </trkpt>
      <trkpt lat="42.61986" lon="1.73022">
        <ele>2332</ele>
        <time>2019-08-10T11:11:12Z</time>
      </trkpt>
      <trkpt lat="42.61978" lon="1.73015">
        <ele>2335</ele>
        <time>2019-08-10T12:48:04Z</time>
      </trkpt>
      <trkpt lat="42.61969" lon="1.73016">
        <ele>2337</ele>
        <time>2019-08-10T12:48:15Z</time>
      </trkpt>
      <trkpt lat="42.61961" lon="1.7301">
        <ele>2336</ele>
        <time>2019-08-10T12:48:34Z</time>
      </trkpt>
      <trkpt lat="42.61953" lon="1.73016">
        <ele>2338</ele>
        <time>2019-08-10T12:48:47Z</time>
      </trkpt>
      <trkpt lat="42.61945" lon="1.73024">
        <ele>2339</ele>
        <time>2019-08-10T12:48:56Z</time>
      </trkpt>
      <trkpt lat="42.61936" lon="1.73027">
        <ele>2338</ele>
        <time>2019-08-10T12:49:06Z</time>
      </trkpt>
      <trkpt lat="42.61927" lon="1.7303">
        <ele>2340</ele>
        <time>2019-08-10T12:49:16Z</time>
      </trkpt>
      <trkpt lat="42.61919" lon="1.73035">
        <ele>2342</ele>
        <time>2019-08-10T12:49:32Z</time>
      </trkpt>
      <trkpt lat="42.6191" lon="1.73036">
        <ele>2344</ele>
        <time>2019-08-10T12:49:56Z</time>
      </trkpt>
      <trkpt lat="42.61901" lon="1.7304">
        <ele>2345</ele>
        <time>2019-08-10T12:50:14Z</time>
      </trkpt>
      <trkpt lat="42.61892" lon="1.73042">
        <ele>2344</ele>
        <time>2019-08-10T12:50:30Z</time>
      </trkpt>
      <trkpt lat="42.61885" lon="1.73051">
        <ele>2343</ele>
        <time>2019-08-10T12:50:49Z</time>
      </trkpt>
      <trkpt lat="42.61879" lon="1.73062">
        <ele>2342</ele>
        <time>2019-08-10T12:51:02Z</time>
      </trkpt>
      <trkpt lat="42.61871" lon="1.73067">
        <ele>2339</ele>
        <time>2019-08-10T12:51:16Z</time>
      </trkpt>
      <trkpt lat="42.61864" lon="1.73075">
        <ele>2339</ele>
        <time>2019-08-10T12:51:38Z</time>
      </trkpt>
      <trkpt lat="42.61856" lon="1.73081">
        <ele>2339</ele>
        <time>2019-08-10T12:51:50Z</time>
      </trkpt>
      <trkpt lat="42.61847" lon="1.73086">
        <ele>2340</ele>
        <time>2019-08-10T12:52:00Z</time>
      </trkpt>
      <trkpt lat="42.6184" lon="1.73095">
        <ele>2341</ele>
        <time>2019-08-10T12:52:10Z</time>
      </trkpt>
      <trkpt lat="42.61837" lon="1.73108">
        <ele>2341</ele>
        <time>2019-08-10T12:52:21Z</time>
      </trkpt>
      <trkpt lat="42.61835" lon="1.7312">
        <ele>2340</ele>
        <time>2019-08-10T12:52:31Z</time>
      </trkpt>
      <trkpt lat="42.61826" lon="1.73121">
        <ele>2342</ele>
        <time>2019-08-10T12:52:52Z</time>
      </trkpt>
      <trkpt lat="42.61816" lon="1.73121">
        <ele>2347</ele>
        <time>2019-08-10T12:53:13Z</time>
      </trkpt>
      <trkpt lat="42.61807" lon="1.73124">
        <ele>2350</ele>
        <time>2019-08-10T12:53:35Z</time>
      </trkpt>
      <trkpt lat="42.61799" lon="1.7313">
        <ele>2352</ele>
        <time>2019-08-10T12:53:55Z</time>
      </trkpt>
      <trkpt lat="42.61791" lon="1.73123">
        <ele>2353</ele>
        <time>2019-08-10T12:54:13Z</time>
      </trkpt>
      <trkpt lat="42.61782" lon="1.73121">
        <ele>2359</ele>
        <time>2019-08-10T12:54:33Z</time>
      </trkpt>
      <trkpt lat="42.61774" lon="1.73128">
        <ele>2360</ele>
        <time>2019-08-10T12:54:49Z</time>
      </trkpt>
      <trkpt lat="42.61768" lon="1.73136">
        <ele>2362</ele>
        <time>2019-08-10T12:55:02Z</time>
      </trkpt>
      <trkpt lat="42.61761" lon="1.73145">
        <ele>2366</ele>
        <time>2019-08-10T12:55:30Z</time>
      </trkpt>
      <trkpt lat="42.61752" lon="1.73143">
        <ele>2369</ele>
        <time>2019-08-10T12:55:52Z</time>
      </trkpt>
      <trkpt lat="42.61743" lon="1.73138">
        <ele>2365</ele>
        <time>2019-08-10T12:56:06Z</time>
      </trkpt>
      <trkpt lat="42.61734" lon="1.73138">
        <ele>2372</ele>
        <time>2019-08-10T12:56:43Z</time>
      </trkpt>
      <trkpt lat="42.61726" lon="1.73131">
        <ele>2373</ele>
        <time>2019-08-10T12:57:00Z</time>
      </trkpt>
      <trkpt lat="42.61717" lon="1.73134">
        <ele>2374</ele>
        <time>2019-08-10T12:57:17Z</time>
      </trkpt>
      <trkpt lat="42.61709" lon="1.73131">
        <ele>2375</ele>
        <time>2019-08-10T12:57:30Z</time>
      </trkpt>
      <trkpt lat="42.61701" lon="1.73123">
        <ele>2374</ele>
        <time>2019-08-10T12:57:55Z</time>
      </trkpt>
      <trkpt lat="42.61694" lon="1.73114">
        <ele>2379</ele>
        <time>2019-08-10T12:58:05Z</time>
      </trkpt>
      <trkpt lat="42.61687" lon="1.73106">
        <ele>2379</ele>
        <time>2019-08-10T12:58:16Z</time>
      </trkpt>
      <trkpt lat="42.61678" lon="1.73102">
        <ele>2380</ele>
        <time>2019-08-10T12:58:27Z</time>
      </trkpt>
      <trkpt lat="42.61671" lon="1.73108">
        <ele>2380</ele>
        <time>2019-08-10T12:58:42Z</time>
      </trkpt>
      <trkpt lat="42.61662" lon="1.73103">
        <ele>2383</ele>
        <time>2019-08-10T12:58:56Z</time>
      </trkpt>
      <trkpt lat="42.61655" lon="1.73095">
        <ele>2383</ele>
        <time>2019-08-10T12:59:13Z</time>
      </trkpt>
      <trkpt lat="42.61648" lon="1.73087">
        <ele>2383</ele>
        <time>2019-08-10T12:59:30Z</time>
      </trkpt>
      <trkpt lat="42.61643" lon="1.73076">
        <ele>2387</ele>
        <time>2019-08-10T12:59:57Z</time>
      </trkpt>
      <trkpt lat="42.61634" lon="1.73072">
        <ele>2388</ele>
        <time>2019-08-10T13:00:06Z</time>
      </trkpt>
      <trkpt lat="42.61626" lon="1.73064">
        <ele>2385</ele>
        <time>2019-08-10T13:00:24Z</time>
      </trkpt>
      <trkpt lat="42.6162" lon="1.73055">
        <ele>2389</ele>
        <time>2019-08-10T13:00:43Z</time>
      </trkpt>
      <trkpt lat="42.6161" lon="1.73053">
        <ele>2393</ele>
        <time>2019-08-10T13:01:07Z</time>
      </trkpt>
      <trkpt lat="42.61601" lon="1.73057">
        <ele>2396</ele>
        <time>2019-08-10T13:01:21Z</time>
      </trkpt>
      <trkpt lat="42.61592" lon="1.73055">
        <ele>2401</ele>
        <time>2019-08-10T13:01:40Z</time>
      </trkpt>
      <trkpt lat="42.61584" lon="1.7305">
        <ele>2404</ele>
        <time>2019-08-10T13:02:01Z</time>
      </trkpt>
      <trkpt lat="42.61576" lon="1.73043">
        <ele>2410</ele>
        <time>2019-08-10T13:02:30Z</time>
      </trkpt>
      <trkpt lat="42.61567" lon="1.73042">
        <ele>2414</ele>
        <time>2019-08-10T13:02:53Z</time>
      </trkpt>
      <trkpt lat="42.61557" lon="1.73038">
        <ele>2413</ele>
        <time>2019-08-10T13:03:19Z</time>
      </trkpt>
      <trkpt lat="42.61551" lon="1.73029">
        <ele>2417</ele>
        <time>2019-08-10T13:03:37Z</time>
      </trkpt>
      <trkpt lat="42.61542" lon="1.73026">
        <ele>2417</ele>
        <time>2019-08-10T13:03:52Z</time>
      </trkpt>
      <trkpt lat="42.61534" lon="1.73023">
        <ele>2420</ele>
        <time>2019-08-10T13:04:11Z</time>
      </trkpt>
      <trkpt lat="42.61526" lon="1.7303">
        <ele>2421</ele>
        <time>2019-08-10T13:04:27Z</time>
      </trkpt>
      <trkpt lat="42.61517" lon="1.73035">
        <ele>2426</ele>
        <time>2019-08-10T13:04:48Z</time>
      </trkpt>
      <trkpt lat="42.61508" lon="1.73037">
        <ele>2432</ele>
        <time>2019-08-10T13:05:22Z</time>
      </trkpt>
      <trkpt lat="42.61499" lon="1.73039">
        <ele>2434</ele>
        <time>2019-08-10T13:05:40Z</time>
      </trkpt>
      <trkpt lat="42.61489" lon="1.73038">
        <ele>2438</ele>
        <time>2019-08-10T13:06:11Z</time>
      </trkpt>
      <trkpt lat="42.61481" lon="1.73034">
        <ele>2442</ele>
        <time>2019-08-10T13:06:41Z</time>
      </trkpt>
      <trkpt lat="42.61474" lon="1.73025">
        <ele>2444</ele>
        <time>2019-08-10T13:07:31Z</time>
      </trkpt>
      <trkpt lat="42.61464" lon="1.73026">
        <ele>2445</ele>
        <time>2019-08-10T13:07:46Z</time>
      </trkpt>
      <trkpt lat="42.61456" lon="1.73021">
        <ele>2443</ele>
        <time>2019-08-10T13:07:55Z</time>
      </trkpt>
      <trkpt lat="42.61464" lon="1.73027">
        <ele>2443</ele>
        <time>2019-08-10T13:08:12Z</time>
      </trkpt>
      <trkpt lat="42.61472" lon="1.73022">
        <ele>2443</ele>
        <time>2019-08-10T13:08:23Z</time>
      </trkpt>
      <trkpt lat="42.61482" lon="1.73021">
        <ele>2442</ele>
        <time>2019-08-10T13:08:51Z</time>
      </trkpt>
      <trkpt lat="42.61491" lon="1.73017">
        <ele>2444</ele>
        <time>2019-08-10T13:09:03Z</time>
      </trkpt>
      <trkpt lat="42.61499" lon="1.73009">
        <ele>2444</ele>
        <time>2019-08-10T13:09:20Z</time>
      </trkpt>
      <trkpt lat="42.61509" lon="1.73009">
        <ele>2444</ele>
        <time>2019-08-10T13:09:55Z</time>
      </trkpt>
      <trkpt lat="42.61502" lon="1.73018">
        <ele>2449</ele>
        <time>2019-08-10T13:14:00Z</time>
      </trkpt>
      <trkpt lat="42.61493" lon="1.73019">
        <ele>2445</ele>
        <time>2019-08-10T13:14:27Z</time>
      </trkpt>
      <trkpt lat="42.61484" lon="1.73019">
        <ele>2446</ele>
        <time>2019-08-10T13:14:40Z</time>
      </trkpt>
      <trkpt lat="42.61474" lon="1.73021">
        <ele>2445</ele>
        <time>2019-08-10T13:14:56Z</time>
      </trkpt>
      <trkpt lat="42.61465" lon="1.73026">
        <ele>2447</ele>
        <time>2019-08-10T13:15:11Z</time>
      </trkpt>
      <trkpt lat="42.61456" lon="1.73022">
        <ele>2446</ele>
        <time>2019-08-10T13:15:23Z</time>
      </trkpt>
      <trkpt lat="42.61449" lon="1.73013">
        <ele>2445</ele>
        <time>2019-08-10T13:15:43Z</time>
      </trkpt>
      <trkpt lat="42.61441" lon="1.73007">
        <ele>2442</ele>
        <time>2019-08-10T13:17:53Z</time>
      </trkpt>
      <trkpt lat="42.61433" lon="1.73">
        <ele>2437</ele>
        <time>2019-08-10T13:18:16Z</time>
      </trkpt>
      <trkpt lat="42.61426" lon="1.72992">
        <ele>2434</ele>
        <time>2019-08-10T13:18:40Z</time>
      </trkpt>
      <trkpt lat="42.61422" lon="1.7298">
        <ele>2428</ele>
        <time>2019-08-10T13:18:53Z</time>
      </trkpt>
      <trkpt lat="42.6142" lon="1.72968">
        <ele>2425</ele>
        <time>2019-08-10T13:19:04Z</time>
      </trkpt>
      <trkpt lat="42.6142" lon="1.72956">
        <ele>2422</ele>
        <time>2019-08-10T13:19:14Z</time>
      </trkpt>
      <trkpt lat="42.61419" lon="1.72943">
        <ele>2421</ele>
        <time>2019-08-10T13:19:24Z</time>
      </trkpt>
      <trkpt lat="42.61415" lon="1.72931">
        <ele>2418</ele>
        <time>2019-08-10T13:19:43Z</time>
      </trkpt>
      <trkpt lat="42.61414" lon="1.72918">
        <ele>2416</ele>
        <time>2019-08-10T13:19:58Z</time>
      </trkpt>
      <trkpt lat="42.61414" lon="1.72905">
        <ele>2414</ele>
        <time>2019-08-10T13:20:12Z</time>
      </trkpt>
      <trkpt lat="42.61411" lon="1.72894">
        <ele>2410</ele>
        <time>2019-08-10T13:20:24Z</time>
      </trkpt>
      <trkpt lat="42.61408" lon="1.72881">
        <ele>2408</ele>
        <time>2019-08-10T13:20:33Z</time>
      </trkpt>
      <trkpt lat="42.61408" lon="1.72868">
        <ele>2407</ele>
        <time>2019-08-10T13:20:44Z</time>
      </trkpt>
      <trkpt lat="42.61406" lon="1.72855">
        <ele>2405</ele>
        <time>2019-08-10T13:20:56Z</time>
      </trkpt>
      <trkpt lat="42.61401" lon="1.72842">
        <ele>2403</ele>
        <time>2019-08-10T13:21:05Z</time>
      </trkpt>
      <trkpt lat="42.61399" lon="1.7283">
        <ele>2404</ele>
        <time>2019-08-10T13:21:15Z</time>
      </trkpt>
      <trkpt lat="42.61403" lon="1.72818">
        <ele>2405</ele>
        <time>2019-08-10T13:21:28Z</time>
      </trkpt>
      <trkpt lat="42.614" lon="1.72805">
        <ele>2400</ele>
        <time>2019-08-10T13:21:41Z</time>
      </trkpt>
      <trkpt lat="42.61395" lon="1.72794">
        <ele>2401</ele>
        <time>2019-08-10T13:21:54Z</time>
      </trkpt>
      <trkpt lat="42.61394" lon="1.72782">
        <ele>2400</ele>
        <time>2019-08-10T13:22:06Z</time>
      </trkpt>
      <trkpt lat="42.6139" lon="1.7277">
        <ele>2395</ele>
        <time>2019-08-10T13:22:18Z</time>
      </trkpt>
      <trkpt lat="42.61387" lon="1.72758">
        <ele>2393</ele>
        <time>2019-08-10T13:22:29Z</time>
      </trkpt>
      <trkpt lat="42.61384" lon="1.72747">
        <ele>2393</ele>
        <time>2019-08-10T13:22:42Z</time>
      </trkpt>
      <trkpt lat="42.61379" lon="1.72736">
        <ele>2390</ele>
        <time>2019-08-10T13:22:53Z</time>
      </trkpt>
      <trkpt lat="42.61374" lon="1.72725">
        <ele>2391</ele>
        <time>2019-08-10T13:23:05Z</time>
      </trkpt>
      <trkpt lat="42.61366" lon="1.72716">
        <ele>2389</ele>
        <time>2019-08-10T13:23:16Z</time>
      </trkpt>
      <trkpt lat="42.61362" lon="1.72704">
        <ele>2386</ele>
        <time>2019-08-10T13:23:28Z</time>
      </trkpt>
      <trkpt lat="42.61357" lon="1.72694">
        <ele>2388</ele>
        <time>2019-08-10T13:23:39Z</time>
      </trkpt>
      <trkpt lat="42.61355" lon="1.72681">
        <ele>2386</ele>
        <time>2019-08-10T13:24:03Z</time>
      </trkpt>
      <trkpt lat="42.61348" lon="1.72673">
        <ele>2382</ele>
        <time>2019-08-10T13:24:28Z</time>
      </trkpt>
      <trkpt lat="42.61343" lon="1.72662">
        <ele>2380</ele>
        <time>2019-08-10T13:24:44Z</time>
      </trkpt>
      <trkpt lat="42.61338" lon="1.72652">
        <ele>2376</ele>
        <time>2019-08-10T13:25:02Z</time>
      </trkpt>
      <trkpt lat="42.61333" lon="1.72641">
        <ele>2376</ele>
        <time>2019-08-10T13:25:16Z</time>
      </trkpt>
      <trkpt lat="42.61328" lon="1.72629">
        <ele>2375</ele>
        <time>2019-08-10T13:25:29Z</time>
      </trkpt>
      <trkpt lat="42.61321" lon="1.72621">
        <ele>2374</ele>
        <time>2019-08-10T13:25:39Z</time>
      </trkpt>
      <trkpt lat="42.61316" lon="1.72611">
        <ele>2370</ele>
        <time>2019-08-10T13:26:11Z</time>
      </trkpt>
      <trkpt lat="42.61309" lon="1.72603">
        <ele>2367</ele>
        <time>2019-08-10T13:26:35Z</time>
      </trkpt>
      <trkpt lat="42.613" lon="1.72601">
        <ele>2363</ele>
        <time>2019-08-10T13:27:05Z</time>
      </trkpt>
      <trkpt lat="42.61292" lon="1.72594">
        <ele>2362</ele>
        <time>2019-08-10T13:27:17Z</time>
      </trkpt>
      <trkpt lat="42.61284" lon="1.72587">
        <ele>2360</ele>
        <time>2019-08-10T13:27:27Z</time>
      </trkpt>
      <trkpt lat="42.61275" lon="1.72583">
        <ele>2360</ele>
        <time>2019-08-10T13:27:53Z</time>
      </trkpt>
      <trkpt lat="42.61269" lon="1.72572">
        <ele>2359</ele>
        <time>2019-08-10T13:28:06Z</time>
      </trkpt>
      <trkpt lat="42.61266" lon="1.7256">
        <ele>2359</ele>
        <time>2019-08-10T13:28:18Z</time>
      </trkpt>
      <trkpt lat="42.61264" lon="1.72548">
        <ele>2358</ele>
        <time>2019-08-10T13:28:28Z</time>
      </trkpt>
      <trkpt lat="42.61261" lon="1.72536">
        <ele>2356</ele>
        <time>2019-08-10T13:28:41Z</time>
      </trkpt>
      <trkpt lat="42.61261" lon="1.72524">
        <ele>2355</ele>
        <time>2019-08-10T13:29:00Z</time>
      </trkpt>
      <trkpt lat="42.61257" lon="1.72512">
        <ele>2360</ele>
        <time>2019-08-10T13:29:17Z</time>
      </trkpt>
      <trkpt lat="42.61254" lon="1.725">
        <ele>2354</ele>
        <time>2019-08-10T13:29:41Z</time>
      </trkpt>
      <trkpt lat="42.61245" lon="1.72497">
        <ele>2353</ele>
        <time>2019-08-10T13:29:56Z</time>
      </trkpt>
      <trkpt lat="42.61237" lon="1.72492">
        <ele>2345</ele>
        <time>2019-08-10T13:30:17Z</time>
      </trkpt>
      <trkpt lat="42.61228" lon="1.72486">
        <ele>2344</ele>
        <time>2019-08-10T13:30:44Z</time>
      </trkpt>
      <trkpt lat="42.6122" lon="1.7248">
        <ele>2337</ele>
        <time>2019-08-10T13:31:00Z</time>
      </trkpt>
      <trkpt lat="42.61211" lon="1.72474">
        <ele>2337</ele>
        <time>2019-08-10T13:31:15Z</time>
      </trkpt>
      <trkpt lat="42.61202" lon="1.72474">
        <ele>2335</ele>
        <time>2019-08-10T13:31:29Z</time>
      </trkpt>
      <trkpt lat="42.61193" lon="1.72471">
        <ele>2330</ele>
        <time>2019-08-10T13:31:44Z</time>
      </trkpt>
      <trkpt lat="42.61186" lon="1.72463">
        <ele>2328</ele>
        <time>2019-08-10T13:32:04Z</time>
      </trkpt>
      <trkpt lat="42.61177" lon="1.72459">
        <ele>2326</ele>
        <time>2019-08-10T13:32:25Z</time>
      </trkpt>
      <trkpt lat="42.6117" lon="1.72451">
        <ele>2321</ele>
        <time>2019-08-10T13:32:40Z</time>
      </trkpt>
      <trkpt lat="42.61163" lon="1.72442">
        <ele>2315</ele>
        <time>2019-08-10T13:32:55Z</time>
      </trkpt>
      <trkpt lat="42.61155" lon="1.72435">
        <ele>2313</ele>
        <time>2019-08-10T13:33:07Z</time>
      </trkpt>
      <trkpt lat="42.61147" lon="1.72429">
        <ele>2309</ele>
        <time>2019-08-10T13:33:22Z</time>
      </trkpt>
      <trkpt lat="42.61138" lon="1.72423">
        <ele>2308</ele>
        <time>2019-08-10T13:33:33Z</time>
      </trkpt>
      <trkpt lat="42.61129" lon="1.72419">
        <ele>2304</ele>
        <time>2019-08-10T13:33:54Z</time>
      </trkpt>
      <trkpt lat="42.61122" lon="1.72427">
        <ele>2304</ele>
        <time>2019-08-10T13:34:09Z</time>
      </trkpt>
      <trkpt lat="42.61114" lon="1.72433">
        <ele>2302</ele>
        <time>2019-08-10T13:34:20Z</time>
      </trkpt>
      <trkpt lat="42.61105" lon="1.72437">
        <ele>2307</ele>
        <time>2019-08-10T13:34:35Z</time>
      </trkpt>
      <trkpt lat="42.61097" lon="1.7243">
        <ele>2308</ele>
        <time>2019-08-10T13:34:57Z</time>
      </trkpt>
      <trkpt lat="42.61092" lon="1.7242">
        <ele>2311</ele>
        <time>2019-08-10T13:35:09Z</time>
      </trkpt>
      <trkpt lat="42.61088" lon="1.72408">
        <ele>2313</ele>
        <time>2019-08-10T13:35:23Z</time>
      </trkpt>
      <trkpt lat="42.6108" lon="1.72401">
        <ele>2313</ele>
        <time>2019-08-10T13:35:32Z</time>
      </trkpt>
      <trkpt lat="42.61073" lon="1.72392">
        <ele>2313</ele>
        <time>2019-08-10T13:35:45Z</time>
      </trkpt>
      <trkpt lat="42.61064" lon="1.7239">
        <ele>2311</ele>
        <time>2019-08-10T13:36:03Z</time>
      </trkpt>
      <trkpt lat="42.61055" lon="1.72387">
        <ele>2305</ele>
        <time>2019-08-10T13:36:22Z</time>
      </trkpt>
      <trkpt lat="42.61048" lon="1.72379">
        <ele>2301</ele>
        <time>2019-08-10T13:36:38Z</time>
      </trkpt>
      <trkpt lat="42.61042" lon="1.72369">
        <ele>2302</ele>
        <time>2019-08-10T13:36:53Z</time>
      </trkpt>
      <trkpt lat="42.61037" lon="1.72359">
        <ele>2303</ele>
        <time>2019-08-10T13:37:18Z</time>
      </trkpt>
      <trkpt lat="42.6103" lon="1.7235">
        <ele>2301</ele>
        <time>2019-08-10T13:37:32Z</time>
      </trkpt>
      <trkpt lat="42.61022" lon="1.72344">
        <ele>2298</ele>
        <time>2019-08-10T13:37:56Z</time>
      </trkpt>
      <trkpt lat="42.61012" lon="1.72344">
        <ele>2299</ele>
        <time>2019-08-10T13:38:09Z</time>
      </trkpt>
      <trkpt lat="42.61003" lon="1.72346">
        <ele>2297</ele>
        <time>2019-08-10T13:38:23Z</time>
      </trkpt>
      <trkpt lat="42.60994" lon="1.72349">
        <ele>2296</ele>
        <time>2019-08-10T13:38:53Z</time>
      </trkpt>
      <trkpt lat="42.60985" lon="1.72352">
        <ele>2301</ele>
        <time>2019-08-10T13:39:18Z</time>
      </trkpt>
      <trkpt lat="42.60975" lon="1.72356">
        <ele>2302</ele>
        <time>2019-08-10T13:39:29Z</time>
      </trkpt>
      <trkpt lat="42.60965" lon="1.72355">
        <ele>2301</ele>
        <time>2019-08-10T13:39:56Z</time>
      </trkpt>
      <trkpt lat="42.60956" lon="1.72354">
        <ele>2298</ele>
        <time>2019-08-10T13:40:09Z</time>
      </trkpt>
      <trkpt lat="42.60946" lon="1.72354">
        <ele>2297</ele>
        <time>2019-08-10T13:40:19Z</time>
      </trkpt>
      <trkpt lat="42.60937" lon="1.72351">
        <ele>2300</ele>
        <time>2019-08-10T13:40:44Z</time>
      </trkpt>
      <trkpt lat="42.60928" lon="1.72346">
        <ele>2301</ele>
        <time>2019-08-10T13:40:58Z</time>
      </trkpt>
      <trkpt lat="42.60929" lon="1.72333">
        <ele>2298</ele>
        <time>2019-08-10T13:41:10Z</time>
      </trkpt>
      <trkpt lat="42.60935" lon="1.72324">
        <ele>2297</ele>
        <time>2019-08-10T13:41:21Z</time>
      </trkpt>
      <trkpt lat="42.60936" lon="1.72311">
        <ele>2298</ele>
        <time>2019-08-10T13:41:35Z</time>
      </trkpt>
      <trkpt lat="42.60933" lon="1.72299">
        <ele>2297</ele>
        <time>2019-08-10T13:41:51Z</time>
      </trkpt>
      <trkpt lat="42.60925" lon="1.72292">
        <ele>2296</ele>
        <time>2019-08-10T13:42:06Z</time>
      </trkpt>
      <trkpt lat="42.60916" lon="1.72293">
        <ele>2298</ele>
        <time>2019-08-10T13:42:39Z</time>
      </trkpt>
      <trkpt lat="42.60911" lon="1.72304">
        <ele>2299</ele>
        <time>2019-08-10T13:42:52Z</time>
      </trkpt>
      <trkpt lat="42.60904" lon="1.72312">
        <ele>2301</ele>
        <time>2019-08-10T13:43:17Z</time>
      </trkpt>
      <trkpt lat="42.60895" lon="1.72315">
        <ele>2307</ele>
        <time>2019-08-10T13:43:52Z</time>
      </trkpt>
      <trkpt lat="42.60887" lon="1.72307">
        <ele>2312</ele>
        <time>2019-08-10T13:44:39Z</time>
      </trkpt>
      <trkpt lat="42.60887" lon="1.72295">
        <ele>2312</ele>
        <time>2019-08-10T13:44:58Z</time>
      </trkpt>
      <trkpt lat="42.60884" lon="1.72283">
        <ele>2314</ele>
        <time>2019-08-10T13:45:09Z</time>
      </trkpt>
      <trkpt lat="42.6088" lon="1.72271">
        <ele>2315</ele>
        <time>2019-08-10T13:45:24Z</time>
      </trkpt>
      <trkpt lat="42.60873" lon="1.72263">
        <ele>2316</ele>
        <time>2019-08-10T13:45:39Z</time>
      </trkpt>
      <trkpt lat="42.60865" lon="1.72255">
        <ele>2320</ele>
        <time>2019-08-10T13:45:52Z</time>
      </trkpt>
      <trkpt lat="42.60864" lon="1.72243">
        <ele>2316</ele>
        <time>2019-08-10T13:46:06Z</time>
      </trkpt>
      <trkpt lat="42.60866" lon="1.7223">
        <ele>2313</ele>
        <time>2019-08-10T13:46:20Z</time>
      </trkpt>
      <trkpt lat="42.60866" lon="1.72217">
        <ele>2311</ele>
        <time>2019-08-10T13:46:31Z</time>
      </trkpt>
      <trkpt lat="42.60866" lon="1.72205">
        <ele>2311</ele>
        <time>2019-08-10T13:46:43Z</time>
      </trkpt>
      <trkpt lat="42.60867" lon="1.72192">
        <ele>2307</ele>
        <time>2019-08-10T13:46:52Z</time>
      </trkpt>
      <trkpt lat="42.6087" lon="1.72179">
        <ele>2309</ele>
        <time>2019-08-10T13:47:26Z</time>
      </trkpt>
      <trkpt lat="42.6087" lon="1.72166">
        <ele>2306</ele>
        <time>2019-08-10T13:48:07Z</time>
      </trkpt>
      <trkpt lat="42.60869" lon="1.72154">
        <ele>2307</ele>
        <time>2019-08-10T13:48:29Z</time>
      </trkpt>
      <trkpt lat="42.60869" lon="1.72141">
        <ele>2306</ele>
        <time>2019-08-10T13:48:48Z</time>
      </trkpt>
      <trkpt lat="42.60865" lon="1.72129">
        <ele>2308</ele>
        <time>2019-08-10T13:49:12Z</time>
      </trkpt>
      <trkpt lat="42.60866" lon="1.72116">
        <ele>2317</ele>
        <time>2019-08-10T13:49:49Z</time>
      </trkpt>
      <trkpt lat="42.60858" lon="1.7211">
        <ele>2319</ele>
        <time>2019-08-10T13:50:39Z</time>
      </trkpt>
      <trkpt lat="42.60857" lon="1.72098">
        <ele>2325</ele>
        <time>2019-08-10T13:51:05Z</time>
      </trkpt>
      <trkpt lat="42.60859" lon="1.72086">
        <ele>2334</ele>
        <time>2019-08-10T13:52:49Z</time>
      </trkpt>
      <trkpt lat="42.60859" lon="1.72073">
        <ele>2338</ele>
        <time>2019-08-10T13:54:11Z</time>
      </trkpt>
      <trkpt lat="42.60863" lon="1.72061">
        <ele>2336</ele>
        <time>2019-08-10T13:54:54Z</time>
      </trkpt>
      <trkpt lat="42.60865" lon="1.72049">
        <ele>2333</ele>
        <time>2019-08-10T13:55:08Z</time>
      </trkpt>
      <trkpt lat="42.6087" lon="1.72038">
        <ele>2329</ele>
        <time>2019-08-10T13:55:21Z</time>
      </trkpt>
      <trkpt lat="42.60874" lon="1.72026">
        <ele>2324</ele>
        <time>2019-08-10T13:55:33Z</time>
      </trkpt>
      <trkpt lat="42.60877" lon="1.72015">
        <ele>2322</ele>
        <time>2019-08-10T13:55:53Z</time>
      </trkpt>
      <trkpt lat="42.60873" lon="1.72004">
        <ele>2321</ele>
        <time>2019-08-10T13:56:05Z</time>
      </trkpt>
      <trkpt lat="42.60874" lon="1.71991">
        <ele>2320</ele>
        <time>2019-08-10T13:56:16Z</time>
      </trkpt>
      <trkpt lat="42.60875" lon="1.71978">
        <ele>2323</ele>
        <time>2019-08-10T13:56:29Z</time>
      </trkpt>
      <trkpt lat="42.60874" lon="1.71965">
        <ele>2321</ele>
        <time>2019-08-10T13:56:50Z</time>
      </trkpt>
      <trkpt lat="42.60875" lon="1.71952">
        <ele>2325</ele>
        <time>2019-08-10T13:57:04Z</time>
      </trkpt>
      <trkpt lat="42.60875" lon="1.71939">
        <ele>2328</ele>
        <time>2019-08-10T13:57:21Z</time>
      </trkpt>
      <trkpt lat="42.60869" lon="1.71929">
        <ele>2325</ele>
        <time>2019-08-10T13:57:36Z</time>
      </trkpt>
      <trkpt lat="42.60874" lon="1.71918">
        <ele>2321</ele>
        <time>2019-08-10T13:58:02Z</time>
      </trkpt>
      <trkpt lat="42.60878" lon="1.71907">
        <ele>2319</ele>
        <time>2019-08-10T13:58:11Z</time>
      </trkpt>
      <trkpt lat="42.60879" lon="1.71894">
        <ele>2318</ele>
        <time>2019-08-10T13:58:21Z</time>
      </trkpt>
      <trkpt lat="42.6088" lon="1.71882">
        <ele>2318</ele>
        <time>2019-08-10T13:58:37Z</time>
      </trkpt>
      <trkpt lat="42.60877" lon="1.71869">
        <ele>2320</ele>
        <time>2019-08-10T13:58:48Z</time>
      </trkpt>
      <trkpt lat="42.60873" lon="1.71859">
        <ele>2322</ele>
        <time>2019-08-10T13:59:03Z</time>
      </trkpt>
      <trkpt lat="42.60869" lon="1.71846">
        <ele>2321</ele>
        <time>2019-08-10T13:59:17Z</time>
      </trkpt>
      <trkpt lat="42.60866" lon="1.71833">
        <ele>2321</ele>
        <time>2019-08-10T13:59:29Z</time>
      </trkpt>
      <trkpt lat="42.60864" lon="1.71821">
        <ele>2320</ele>
        <time>2019-08-10T13:59:43Z</time>
      </trkpt>
      <trkpt lat="42.60857" lon="1.71812">
        <ele>2321</ele>
        <time>2019-08-10T13:59:53Z</time>
      </trkpt>
      <trkpt lat="42.60849" lon="1.71806">
        <ele>2319</ele>
        <time>2019-08-10T14:00:18Z</time>
      </trkpt>
      <trkpt lat="42.60849" lon="1.71793">
        <ele>2317</ele>
        <time>2019-08-10T14:00:34Z</time>
      </trkpt>
      <trkpt lat="42.60846" lon="1.71781">
        <ele>2315</ele>
        <time>2019-08-10T14:00:48Z</time>
      </trkpt>
      <trkpt lat="42.60843" lon="1.71768">
        <ele>2312</ele>
        <time>2019-08-10T14:01:15Z</time>
      </trkpt>
      <trkpt lat="42.60839" lon="1.71757">
        <ele>2311</ele>
        <time>2019-08-10T14:01:30Z</time>
      </trkpt>
      <trkpt lat="42.60835" lon="1.71746">
        <ele>2306</ele>
        <time>2019-08-10T14:01:54Z</time>
      </trkpt>
      <trkpt lat="42.60827" lon="1.71742">
        <ele>2305</ele>
        <time>2019-08-10T14:02:11Z</time>
      </trkpt>
      <trkpt lat="42.60819" lon="1.71735">
        <ele>2306</ele>
        <time>2019-08-10T14:02:24Z</time>
      </trkpt>
      <trkpt lat="42.60814" lon="1.71724">
        <ele>2307</ele>
        <time>2019-08-10T14:02:45Z</time>
      </trkpt>
      <trkpt lat="42.60808" lon="1.71714">
        <ele>2310</ele>
        <time>2019-08-10T14:03:04Z</time>
      </trkpt>
      <trkpt lat="42.608" lon="1.71708">
        <ele>2312</ele>
        <time>2019-08-10T14:03:20Z</time>
      </trkpt>
      <trkpt lat="42.60791" lon="1.71704">
        <ele>2314</ele>
        <time>2019-08-10T14:03:34Z</time>
      </trkpt>
      <trkpt lat="42.60783" lon="1.71697">
        <ele>2315</ele>
        <time>2019-08-10T14:03:46Z</time>
      </trkpt>
      <trkpt lat="42.60774" lon="1.71693">
        <ele>2316</ele>
        <time>2019-08-10T14:04:01Z</time>
      </trkpt>
      <trkpt lat="42.60768" lon="1.71684">
        <ele>2315</ele>
        <time>2019-08-10T14:04:18Z</time>
      </trkpt>
      <trkpt lat="42.60765" lon="1.71672">
        <ele>2318</ele>
        <time>2019-08-10T14:04:31Z</time>
      </trkpt>
      <trkpt lat="42.60762" lon="1.7166">
        <ele>2317</ele>
        <time>2019-08-10T14:04:43Z</time>
      </trkpt>
      <trkpt lat="42.60755" lon="1.71652">
        <ele>2317</ele>
        <time>2019-08-10T14:05:10Z</time>
      </trkpt>
      <trkpt lat="42.60746" lon="1.71647">
        <ele>2315</ele>
        <time>2019-08-10T14:05:50Z</time>
      </trkpt>
      <trkpt lat="42.60746" lon="1.71634">
        <ele>2317</ele>
        <time>2019-08-10T14:06:03Z</time>
      </trkpt>
      <trkpt lat="42.60741" lon="1.71623">
        <ele>2314</ele>
        <time>2019-08-10T14:06:21Z</time>
      </trkpt>
      <trkpt lat="42.60736" lon="1.71611">
        <ele>2309</ele>
        <time>2019-08-10T14:06:40Z</time>
      </trkpt>
      <trkpt lat="42.60734" lon="1.71599">
        <ele>2310</ele>
        <time>2019-08-10T14:06:53Z</time>
      </trkpt>
      <trkpt lat="42.60732" lon="1.71587">
        <ele>2313</ele>
        <time>2019-08-10T14:07:06Z</time>
      </trkpt>
      <trkpt lat="42.6074" lon="1.71582">
        <ele>2314</ele>
        <time>2019-08-10T14:07:28Z</time>
      </trkpt>
      <trkpt lat="42.60732" lon="1.71574">
        <ele>2307</ele>
        <time>2019-08-10T14:10:39Z</time>
      </trkpt>
      <trkpt lat="42.60738" lon="1.71583">
        <ele>2307</ele>
        <time>2019-08-10T14:10:49Z</time>
      </trkpt>
      <trkpt lat="42.60731" lon="1.71592">
        <ele>2305</ele>
        <time>2019-08-10T14:11:06Z</time>
      </trkpt>
      <trkpt lat="42.60719" lon="1.71575">
        <ele>2306</ele>
        <time>2019-08-10T14:11:12Z</time>
      </trkpt>
      <trkpt lat="42.60754" lon="1.71571">
        <ele>2314</ele>
        <time>2019-08-10T14:13:17Z</time>
      </trkpt>
      <trkpt lat="42.60738" lon="1.71554">
        <ele>2375</ele>
        <time>2019-08-10T14:13:19Z</time>
      </trkpt>
      <trkpt lat="42.6073" lon="1.71566">
        <ele>2368</ele>
        <time>2019-08-10T14:13:23Z</time>
      </trkpt>
      <trkpt lat="42.60733" lon="1.71578">
        <ele>2353</ele>
        <time>2019-08-10T14:13:25Z</time>
      </trkpt>
      <trkpt lat="42.60747" lon="1.71582">
        <ele>2331</ele>
        <time>2019-08-10T14:13:42Z</time>
      </trkpt>
      <trkpt lat="42.60751" lon="1.71563">
        <ele>2324</ele>
        <time>2019-08-10T14:13:50Z</time>
      </trkpt>
      <trkpt lat="42.60741" lon="1.71562">
        <ele>2321</ele>
        <time>2019-08-10T14:14:01Z</time>
      </trkpt>
      <trkpt lat="42.60752" lon="1.71569">
        <ele>2319</ele>
        <time>2019-08-10T14:14:07Z</time>
      </trkpt>
      <trkpt lat="42.6076" lon="1.71563">
        <ele>2318</ele>
        <time>2019-08-10T14:14:10Z</time>
      </trkpt>
      <trkpt lat="42.60749" lon="1.71591">
        <ele>2314</ele>
        <time>2019-08-10T14:14:13Z</time>
      </trkpt>
    </trkseg>
  </trk>
</gpx>